<?xml version="1.0" encoding="UTF-8" standalone="no" ?>
<gpx xmlns="http://www.topografix.com/GPX/1/1" xmlns:xsi="http://www.w3.org/2001/XMLSchema-instance" xsi:schemaLocation="http://www.topografix.com/GPX/1/1 http://www.topografix.com/GPX/1/1/gpx.xsd" version="1.1" creator="VisuGPX - https://www.visugpx.com">
  <metadata>
    <name>sauveclare</name>
    <desc><![CDATA[Sortie VTT Rte des croisiere ----Sauveclare]]></desc>
  </metadata>
  <trk>
    <name><![CDATA[2017-10-16 13:55]]></name>
    <desc><![CDATA[<p>Heure de départ: 10/16/2017 13:55</p><p>Heure d'arrivée: 10/16/2017 16:34</p><p>Distance: 27,4 km (02:38)</p><p>Temps déplacement: 02:11</p><p>Vitesse moyenne: 10,4 km/h</p><p>Vitesse moyenne mouv.: 12,5 km/h</p><p>Vitesse Max.: 39,43km/h</p><p>Altitude minimale: 123 m</p><p>Altitude maximale: 269 m</p><p>Vitesse de montée: 529,6 m/h</p><p>Vitesse de descente: -513,4 m/h</p><p>Gain d'altitude: 607 m</p><p>Perte d'altitude: -620 m</p><p>Temps de montée: 01:08</p><p>Temps de descente: 01:12</p><hr align="center" width="480" style="height: 2px; width: 517px"/>]]></desc>
    <trkseg>
      <trkpt lat="43.48679" lon="6.4719">
        <ele>159.33</ele>
        <time>2017-10-16T11:55:55Z</time>
      </trkpt>
      <trkpt lat="43.48674" lon="6.47166">
        <ele>161.26</ele>
        <time>2017-10-16T11:56:06Z</time>
      </trkpt>
      <trkpt lat="43.48656" lon="6.47081">
        <ele>154.17</ele>
        <time>2017-10-16T11:56:09Z</time>
      </trkpt>
      <trkpt lat="43.48652" lon="6.47054">
        <ele>152.37</ele>
        <time>2017-10-16T11:56:13Z</time>
      </trkpt>
      <trkpt lat="43.48652" lon="6.47054">
        <ele>152.37</ele>
        <time>2017-10-16T11:56:13Z</time>
      </trkpt>
      <trkpt lat="43.48645" lon="6.47025">
        <ele>151.37</ele>
        <time>2017-10-16T11:56:17Z</time>
      </trkpt>
      <trkpt lat="43.48639" lon="6.47002">
        <ele>151.17</ele>
        <time>2017-10-16T11:56:20Z</time>
      </trkpt>
      <trkpt lat="43.48634" lon="6.46978">
        <ele>150.53</ele>
        <time>2017-10-16T11:56:23Z</time>
      </trkpt>
      <trkpt lat="43.48625" lon="6.4695">
        <ele>150.33</ele>
        <time>2017-10-16T11:56:27Z</time>
      </trkpt>
      <trkpt lat="43.48616" lon="6.46927">
        <ele>150.33</ele>
        <time>2017-10-16T11:56:31Z</time>
      </trkpt>
      <trkpt lat="43.48608" lon="6.469">
        <ele>154.3</ele>
        <time>2017-10-16T11:56:37Z</time>
      </trkpt>
      <trkpt lat="43.48591" lon="6.46889">
        <ele>151.33</ele>
        <time>2017-10-16T11:56:44Z</time>
      </trkpt>
      <trkpt lat="43.48572" lon="6.46895">
        <ele>152.33</ele>
        <time>2017-10-16T11:56:52Z</time>
      </trkpt>
      <trkpt lat="43.48552" lon="6.46902">
        <ele>152.53</ele>
        <time>2017-10-16T11:56:59Z</time>
      </trkpt>
      <trkpt lat="43.48532" lon="6.46907">
        <ele>152.34</ele>
        <time>2017-10-16T11:57:06Z</time>
      </trkpt>
      <trkpt lat="43.48514" lon="6.46912">
        <ele>154.33</ele>
        <time>2017-10-16T11:57:13Z</time>
      </trkpt>
      <trkpt lat="43.48496" lon="6.46917">
        <ele>152.57</ele>
        <time>2017-10-16T11:57:20Z</time>
      </trkpt>
      <trkpt lat="43.48476" lon="6.46925">
        <ele>150.53</ele>
        <time>2017-10-16T11:57:25Z</time>
      </trkpt>
      <trkpt lat="43.48457" lon="6.46933">
        <ele>151.33</ele>
        <time>2017-10-16T11:57:29Z</time>
      </trkpt>
      <trkpt lat="43.48437" lon="6.46941">
        <ele>150.37</ele>
        <time>2017-10-16T11:57:33Z</time>
      </trkpt>
      <trkpt lat="43.48423" lon="6.46926">
        <ele>153.32</ele>
        <time>2017-10-16T11:57:41Z</time>
      </trkpt>
      <trkpt lat="43.48419" lon="6.46901">
        <ele>155.29</ele>
        <time>2017-10-16T11:57:48Z</time>
      </trkpt>
      <trkpt lat="43.48411" lon="6.46877">
        <ele>158.37</ele>
        <time>2017-10-16T11:57:55Z</time>
      </trkpt>
      <trkpt lat="43.48409" lon="6.46852">
        <ele>161.29</ele>
        <time>2017-10-16T11:58:01Z</time>
      </trkpt>
      <trkpt lat="43.48395" lon="6.46836">
        <ele>163.33</ele>
        <time>2017-10-16T11:58:09Z</time>
      </trkpt>
      <trkpt lat="43.48376" lon="6.46837">
        <ele>160.53</ele>
        <time>2017-10-16T11:58:16Z</time>
      </trkpt>
      <trkpt lat="43.48357" lon="6.46839">
        <ele>159.34</ele>
        <time>2017-10-16T11:58:24Z</time>
      </trkpt>
      <trkpt lat="43.48337" lon="6.46844">
        <ele>159.33</ele>
        <time>2017-10-16T11:58:31Z</time>
      </trkpt>
      <trkpt lat="43.48329" lon="6.46868">
        <ele>158.33</ele>
        <time>2017-10-16T11:58:38Z</time>
      </trkpt>
      <trkpt lat="43.4831" lon="6.46875">
        <ele>159.33</ele>
        <time>2017-10-16T11:58:46Z</time>
      </trkpt>
      <trkpt lat="43.4829" lon="6.46877">
        <ele>159.33</ele>
        <time>2017-10-16T11:58:53Z</time>
      </trkpt>
      <trkpt lat="43.48277" lon="6.46894">
        <ele>159.33</ele>
        <time>2017-10-16T11:59:00Z</time>
      </trkpt>
      <trkpt lat="43.48261" lon="6.46913">
        <ele>161.29</ele>
        <time>2017-10-16T11:59:07Z</time>
      </trkpt>
      <trkpt lat="43.48243" lon="6.46925">
        <ele>162.33</ele>
        <time>2017-10-16T11:59:14Z</time>
      </trkpt>
      <trkpt lat="43.48224" lon="6.46931">
        <ele>162.33</ele>
        <time>2017-10-16T11:59:21Z</time>
      </trkpt>
      <trkpt lat="43.48205" lon="6.4693">
        <ele>162.13</ele>
        <time>2017-10-16T11:59:29Z</time>
      </trkpt>
      <trkpt lat="43.48187" lon="6.46918">
        <ele>165.12</ele>
        <time>2017-10-16T11:59:37Z</time>
      </trkpt>
      <trkpt lat="43.48171" lon="6.46905">
        <ele>167.29</ele>
        <time>2017-10-16T11:59:46Z</time>
      </trkpt>
      <trkpt lat="43.48155" lon="6.4689">
        <ele>171.09</ele>
        <time>2017-10-16T11:59:55Z</time>
      </trkpt>
      <trkpt lat="43.48138" lon="6.46877">
        <ele>174.29</ele>
        <time>2017-10-16T12:00:04Z</time>
      </trkpt>
      <trkpt lat="43.48121" lon="6.46863">
        <ele>179.13</ele>
        <time>2017-10-16T12:00:14Z</time>
      </trkpt>
      <trkpt lat="43.48105" lon="6.46849">
        <ele>180.33</ele>
        <time>2017-10-16T12:00:22Z</time>
      </trkpt>
      <trkpt lat="43.48087" lon="6.46861">
        <ele>176.34</ele>
        <time>2017-10-16T12:00:28Z</time>
      </trkpt>
      <trkpt lat="43.4807" lon="6.46876">
        <ele>176.53</ele>
        <time>2017-10-16T12:00:34Z</time>
      </trkpt>
      <trkpt lat="43.48054" lon="6.46891">
        <ele>176.33</ele>
        <time>2017-10-16T12:00:40Z</time>
      </trkpt>
      <trkpt lat="43.48041" lon="6.46909">
        <ele>175.34</ele>
        <time>2017-10-16T12:00:46Z</time>
      </trkpt>
      <trkpt lat="43.48025" lon="6.46926">
        <ele>174.33</ele>
        <time>2017-10-16T12:00:52Z</time>
      </trkpt>
      <trkpt lat="43.4801" lon="6.46941">
        <ele>172.53</ele>
        <time>2017-10-16T12:00:58Z</time>
      </trkpt>
      <trkpt lat="43.47994" lon="6.46956">
        <ele>172.33</ele>
        <time>2017-10-16T12:01:04Z</time>
      </trkpt>
      <trkpt lat="43.47979" lon="6.46977">
        <ele>172.17</ele>
        <time>2017-10-16T12:01:10Z</time>
      </trkpt>
      <trkpt lat="43.47966" lon="6.46999">
        <ele>173.13</ele>
        <time>2017-10-16T12:01:16Z</time>
      </trkpt>
      <trkpt lat="43.47951" lon="6.47017">
        <ele>174.13</ele>
        <time>2017-10-16T12:01:23Z</time>
      </trkpt>
      <trkpt lat="43.47936" lon="6.47033">
        <ele>175.33</ele>
        <time>2017-10-16T12:01:30Z</time>
      </trkpt>
      <trkpt lat="43.47919" lon="6.4705">
        <ele>177.32</ele>
        <time>2017-10-16T12:01:37Z</time>
      </trkpt>
      <trkpt lat="43.47904" lon="6.47065">
        <ele>179.29</ele>
        <time>2017-10-16T12:01:44Z</time>
      </trkpt>
      <trkpt lat="43.47891" lon="6.47082">
        <ele>182.12</ele>
        <time>2017-10-16T12:01:51Z</time>
      </trkpt>
      <trkpt lat="43.47878" lon="6.471">
        <ele>185.1</ele>
        <time>2017-10-16T12:01:59Z</time>
      </trkpt>
      <trkpt lat="43.47863" lon="6.47117">
        <ele>185.36</ele>
        <time>2017-10-16T12:02:07Z</time>
      </trkpt>
      <trkpt lat="43.47849" lon="6.47134">
        <ele>187.13</ele>
        <time>2017-10-16T12:02:16Z</time>
      </trkpt>
      <trkpt lat="43.47834" lon="6.47153">
        <ele>189.49</ele>
        <time>2017-10-16T12:02:24Z</time>
      </trkpt>
      <trkpt lat="43.4782" lon="6.4717">
        <ele>188.81</ele>
        <time>2017-10-16T12:02:35Z</time>
      </trkpt>
      <trkpt lat="43.478" lon="6.47175">
        <ele>188.29</ele>
        <time>2017-10-16T12:02:42Z</time>
      </trkpt>
      <trkpt lat="43.47784" lon="6.47164">
        <ele>188.57</ele>
        <time>2017-10-16T12:02:49Z</time>
      </trkpt>
      <trkpt lat="43.47774" lon="6.47143">
        <ele>189.51</ele>
        <time>2017-10-16T12:02:57Z</time>
      </trkpt>
      <trkpt lat="43.47754" lon="6.47144">
        <ele>189.37</ele>
        <time>2017-10-16T12:03:04Z</time>
      </trkpt>
      <trkpt lat="43.47737" lon="6.47153">
        <ele>191.29</ele>
        <time>2017-10-16T12:03:12Z</time>
      </trkpt>
      <trkpt lat="43.47719" lon="6.47166">
        <ele>194.33</ele>
        <time>2017-10-16T12:03:20Z</time>
      </trkpt>
      <trkpt lat="43.47703" lon="6.47178">
        <ele>195.34</ele>
        <time>2017-10-16T12:03:28Z</time>
      </trkpt>
      <trkpt lat="43.47686" lon="6.4719">
        <ele>197.13</ele>
        <time>2017-10-16T12:03:39Z</time>
      </trkpt>
      <trkpt lat="43.47671" lon="6.47203">
        <ele>197.89</ele>
        <time>2017-10-16T12:03:46Z</time>
      </trkpt>
      <trkpt lat="43.47654" lon="6.47217">
        <ele>200.13</ele>
        <time>2017-10-16T12:03:54Z</time>
      </trkpt>
      <trkpt lat="43.47638" lon="6.47233">
        <ele>203.29</ele>
        <time>2017-10-16T12:04:03Z</time>
      </trkpt>
      <trkpt lat="43.47624" lon="6.4725">
        <ele>208.13</ele>
        <time>2017-10-16T12:04:14Z</time>
      </trkpt>
      <trkpt lat="43.4761" lon="6.47268">
        <ele>213.28</ele>
        <time>2017-10-16T12:04:25Z</time>
      </trkpt>
      <trkpt lat="43.47597" lon="6.47287">
        <ele>209.33</ele>
        <time>2017-10-16T12:04:32Z</time>
      </trkpt>
      <trkpt lat="43.4758" lon="6.47302">
        <ele>212.1</ele>
        <time>2017-10-16T12:04:41Z</time>
      </trkpt>
      <trkpt lat="43.4756" lon="6.47318">
        <ele>208.74</ele>
        <time>2017-10-16T12:04:49Z</time>
      </trkpt>
      <trkpt lat="43.47544" lon="6.47333">
        <ele>208.14</ele>
        <time>2017-10-16T12:04:55Z</time>
      </trkpt>
      <trkpt lat="43.47529" lon="6.47347">
        <ele>208.36</ele>
        <time>2017-10-16T12:05:02Z</time>
      </trkpt>
      <trkpt lat="43.47514" lon="6.47362">
        <ele>211.17</ele>
        <time>2017-10-16T12:05:09Z</time>
      </trkpt>
      <trkpt lat="43.47497" lon="6.47377">
        <ele>212.3</ele>
        <time>2017-10-16T12:05:17Z</time>
      </trkpt>
      <trkpt lat="43.47481" lon="6.47395">
        <ele>212.49</ele>
        <time>2017-10-16T12:05:23Z</time>
      </trkpt>
      <trkpt lat="43.47465" lon="6.47412">
        <ele>207.55</ele>
        <time>2017-10-16T12:05:29Z</time>
      </trkpt>
      <trkpt lat="43.47452" lon="6.47429">
        <ele>207.3</ele>
        <time>2017-10-16T12:05:37Z</time>
      </trkpt>
      <trkpt lat="43.47438" lon="6.47446">
        <ele>207.53</ele>
        <time>2017-10-16T12:05:44Z</time>
      </trkpt>
      <trkpt lat="43.4742" lon="6.47461">
        <ele>204.45</ele>
        <time>2017-10-16T12:05:50Z</time>
      </trkpt>
      <trkpt lat="43.47405" lon="6.47473">
        <ele>199.39</ele>
        <time>2017-10-16T12:05:54Z</time>
      </trkpt>
      <trkpt lat="43.47387" lon="6.4749">
        <ele>200.33</ele>
        <time>2017-10-16T12:05:59Z</time>
      </trkpt>
      <trkpt lat="43.4737" lon="6.47507">
        <ele>199.33</ele>
        <time>2017-10-16T12:06:04Z</time>
      </trkpt>
      <trkpt lat="43.47353" lon="6.47516">
        <ele>198.34</ele>
        <time>2017-10-16T12:06:08Z</time>
      </trkpt>
      <trkpt lat="43.47333" lon="6.47519">
        <ele>197.53</ele>
        <time>2017-10-16T12:06:12Z</time>
      </trkpt>
      <trkpt lat="43.47315" lon="6.47518">
        <ele>198.33</ele>
        <time>2017-10-16T12:06:16Z</time>
      </trkpt>
      <trkpt lat="43.47297" lon="6.47513">
        <ele>197.34</ele>
        <time>2017-10-16T12:06:20Z</time>
      </trkpt>
      <trkpt lat="43.47277" lon="6.47503">
        <ele>197.37</ele>
        <time>2017-10-16T12:06:24Z</time>
      </trkpt>
      <trkpt lat="43.47259" lon="6.47492">
        <ele>197.33</ele>
        <time>2017-10-16T12:06:28Z</time>
      </trkpt>
      <trkpt lat="43.47243" lon="6.47474">
        <ele>196.53</ele>
        <time>2017-10-16T12:06:33Z</time>
      </trkpt>
      <trkpt lat="43.47228" lon="6.47455">
        <ele>194.57</ele>
        <time>2017-10-16T12:06:37Z</time>
      </trkpt>
      <trkpt lat="43.47213" lon="6.47435">
        <ele>193.33</ele>
        <time>2017-10-16T12:06:41Z</time>
      </trkpt>
      <trkpt lat="43.47199" lon="6.47416">
        <ele>191.54</ele>
        <time>2017-10-16T12:06:45Z</time>
      </trkpt>
      <trkpt lat="43.47185" lon="6.47393">
        <ele>189.53</ele>
        <time>2017-10-16T12:06:49Z</time>
      </trkpt>
      <trkpt lat="43.47171" lon="6.47369">
        <ele>188.33</ele>
        <time>2017-10-16T12:06:53Z</time>
      </trkpt>
      <trkpt lat="43.47155" lon="6.47346">
        <ele>188.33</ele>
        <time>2017-10-16T12:06:57Z</time>
      </trkpt>
      <trkpt lat="43.47142" lon="6.47329">
        <ele>187.34</ele>
        <time>2017-10-16T12:07:00Z</time>
      </trkpt>
      <trkpt lat="43.47126" lon="6.47308">
        <ele>187.33</ele>
        <time>2017-10-16T12:07:04Z</time>
      </trkpt>
      <trkpt lat="43.47113" lon="6.47292">
        <ele>188.32</ele>
        <time>2017-10-16T12:07:08Z</time>
      </trkpt>
      <trkpt lat="43.47095" lon="6.47278">
        <ele>190.29</ele>
        <time>2017-10-16T12:07:14Z</time>
      </trkpt>
      <trkpt lat="43.47079" lon="6.4726">
        <ele>191.33</ele>
        <time>2017-10-16T12:07:22Z</time>
      </trkpt>
      <trkpt lat="43.47068" lon="6.4724">
        <ele>191.33</ele>
        <time>2017-10-16T12:07:28Z</time>
      </trkpt>
      <trkpt lat="43.47066" lon="6.47213">
        <ele>188.34</ele>
        <time>2017-10-16T12:07:35Z</time>
      </trkpt>
      <trkpt lat="43.47077" lon="6.4719">
        <ele>188.37</ele>
        <time>2017-10-16T12:07:41Z</time>
      </trkpt>
      <trkpt lat="43.47091" lon="6.47167">
        <ele>185.41</ele>
        <time>2017-10-16T12:07:46Z</time>
      </trkpt>
      <trkpt lat="43.471" lon="6.47141">
        <ele>181.58</ele>
        <time>2017-10-16T12:07:51Z</time>
      </trkpt>
      <trkpt lat="43.47104" lon="6.47114">
        <ele>177.57</ele>
        <time>2017-10-16T12:07:58Z</time>
      </trkpt>
      <trkpt lat="43.47116" lon="6.47093">
        <ele>173.53</ele>
        <time>2017-10-16T12:08:07Z</time>
      </trkpt>
      <trkpt lat="43.47135" lon="6.47104">
        <ele>173.3</ele>
        <time>2017-10-16T12:08:13Z</time>
      </trkpt>
      <trkpt lat="43.47153" lon="6.47113">
        <ele>171.53</ele>
        <time>2017-10-16T12:08:19Z</time>
      </trkpt>
      <trkpt lat="43.47169" lon="6.47128">
        <ele>170.13</ele>
        <time>2017-10-16T12:08:30Z</time>
      </trkpt>
      <trkpt lat="43.47185" lon="6.47142">
        <ele>167.33</ele>
        <time>2017-10-16T12:08:37Z</time>
      </trkpt>
      <trkpt lat="43.47192" lon="6.47115">
        <ele>164.53</ele>
        <time>2017-10-16T12:08:47Z</time>
      </trkpt>
      <trkpt lat="43.47192" lon="6.47089">
        <ele>162.37</ele>
        <time>2017-10-16T12:08:52Z</time>
      </trkpt>
      <trkpt lat="43.47189" lon="6.47065">
        <ele>158.54</ele>
        <time>2017-10-16T12:08:58Z</time>
      </trkpt>
      <trkpt lat="43.47184" lon="6.4704">
        <ele>155.57</ele>
        <time>2017-10-16T12:09:03Z</time>
      </trkpt>
      <trkpt lat="43.47175" lon="6.47014">
        <ele>153.33</ele>
        <time>2017-10-16T12:09:08Z</time>
      </trkpt>
      <trkpt lat="43.47161" lon="6.46995">
        <ele>152.17</ele>
        <time>2017-10-16T12:09:16Z</time>
      </trkpt>
      <trkpt lat="43.47161" lon="6.46968">
        <ele>148.53</ele>
        <time>2017-10-16T12:09:26Z</time>
      </trkpt>
      <trkpt lat="43.47152" lon="6.46942">
        <ele>146.34</ele>
        <time>2017-10-16T12:09:33Z</time>
      </trkpt>
      <trkpt lat="43.47142" lon="6.46918">
        <ele>145.53</ele>
        <time>2017-10-16T12:09:39Z</time>
      </trkpt>
      <trkpt lat="43.47126" lon="6.46902">
        <ele>142.37</ele>
        <time>2017-10-16T12:09:45Z</time>
      </trkpt>
      <trkpt lat="43.4711" lon="6.46891">
        <ele>140.53</ele>
        <time>2017-10-16T12:09:51Z</time>
      </trkpt>
      <trkpt lat="43.47092" lon="6.46883">
        <ele>139.34</ele>
        <time>2017-10-16T12:09:57Z</time>
      </trkpt>
      <trkpt lat="43.4708" lon="6.46861">
        <ele>135.18</ele>
        <time>2017-10-16T12:10:03Z</time>
      </trkpt>
      <trkpt lat="43.47081" lon="6.46835">
        <ele>133.7</ele>
        <time>2017-10-16T12:10:07Z</time>
      </trkpt>
      <trkpt lat="43.4708" lon="6.46808">
        <ele>132.34</ele>
        <time>2017-10-16T12:10:11Z</time>
      </trkpt>
      <trkpt lat="43.471" lon="6.46799">
        <ele>128.53</ele>
        <time>2017-10-16T12:10:19Z</time>
      </trkpt>
      <trkpt lat="43.47119" lon="6.46794">
        <ele>128.53</ele>
        <time>2017-10-16T12:10:24Z</time>
      </trkpt>
      <trkpt lat="43.47132" lon="6.46769">
        <ele>126.57</ele>
        <time>2017-10-16T12:10:30Z</time>
      </trkpt>
      <trkpt lat="43.4713" lon="6.46743">
        <ele>124.13</ele>
        <time>2017-10-16T12:10:35Z</time>
      </trkpt>
      <trkpt lat="43.47131" lon="6.46718">
        <ele>125.36</ele>
        <time>2017-10-16T12:10:43Z</time>
      </trkpt>
      <trkpt lat="43.47135" lon="6.46692">
        <ele>123.34</ele>
        <time>2017-10-16T12:10:50Z</time>
      </trkpt>
      <trkpt lat="43.47144" lon="6.4667">
        <ele>125.32</ele>
        <time>2017-10-16T12:10:59Z</time>
      </trkpt>
      <trkpt lat="43.47158" lon="6.46655">
        <ele>129.28</ele>
        <time>2017-10-16T12:11:08Z</time>
      </trkpt>
      <trkpt lat="43.47177" lon="6.46642">
        <ele>133.29</ele>
        <time>2017-10-16T12:11:18Z</time>
      </trkpt>
      <trkpt lat="43.47193" lon="6.46632">
        <ele>134.3</ele>
        <time>2017-10-16T12:11:25Z</time>
      </trkpt>
      <trkpt lat="43.4721" lon="6.46622">
        <ele>135.29</ele>
        <time>2017-10-16T12:11:32Z</time>
      </trkpt>
      <trkpt lat="43.47227" lon="6.46607">
        <ele>136.33</ele>
        <time>2017-10-16T12:11:39Z</time>
      </trkpt>
      <trkpt lat="43.47246" lon="6.46594">
        <ele>136.31</ele>
        <time>2017-10-16T12:11:46Z</time>
      </trkpt>
      <trkpt lat="43.47261" lon="6.46581">
        <ele>136.14</ele>
        <time>2017-10-16T12:11:52Z</time>
      </trkpt>
      <trkpt lat="43.47274" lon="6.46562">
        <ele>136.33</ele>
        <time>2017-10-16T12:11:58Z</time>
      </trkpt>
      <trkpt lat="43.47287" lon="6.46541">
        <ele>137.33</ele>
        <time>2017-10-16T12:12:05Z</time>
      </trkpt>
      <trkpt lat="43.47299" lon="6.46521">
        <ele>136.37</ele>
        <time>2017-10-16T12:12:12Z</time>
      </trkpt>
      <trkpt lat="43.47308" lon="6.46498">
        <ele>136.37</ele>
        <time>2017-10-16T12:12:19Z</time>
      </trkpt>
      <trkpt lat="43.47314" lon="6.46471">
        <ele>135.33</ele>
        <time>2017-10-16T12:12:26Z</time>
      </trkpt>
      <trkpt lat="43.47316" lon="6.46445">
        <ele>139.28</ele>
        <time>2017-10-16T12:12:33Z</time>
      </trkpt>
      <trkpt lat="43.47315" lon="6.4642">
        <ele>139.33</ele>
        <time>2017-10-16T12:12:39Z</time>
      </trkpt>
      <trkpt lat="43.47306" lon="6.46394">
        <ele>138.33</ele>
        <time>2017-10-16T12:12:45Z</time>
      </trkpt>
      <trkpt lat="43.47297" lon="6.46371">
        <ele>139.33</ele>
        <time>2017-10-16T12:12:51Z</time>
      </trkpt>
      <trkpt lat="43.47286" lon="6.46348">
        <ele>139.33</ele>
        <time>2017-10-16T12:12:56Z</time>
      </trkpt>
      <trkpt lat="43.47281" lon="6.46323">
        <ele>140.32</ele>
        <time>2017-10-16T12:13:00Z</time>
      </trkpt>
      <trkpt lat="43.47273" lon="6.46297">
        <ele>137.57</ele>
        <time>2017-10-16T12:13:04Z</time>
      </trkpt>
      <trkpt lat="43.47269" lon="6.46272">
        <ele>134.58</ele>
        <time>2017-10-16T12:13:07Z</time>
      </trkpt>
      <trkpt lat="43.47274" lon="6.46239">
        <ele>133.34</ele>
        <time>2017-10-16T12:13:11Z</time>
      </trkpt>
      <trkpt lat="43.4728" lon="6.46216">
        <ele>134.9</ele>
        <time>2017-10-16T12:13:14Z</time>
      </trkpt>
      <trkpt lat="43.47284" lon="6.46191">
        <ele>134.53</ele>
        <time>2017-10-16T12:13:17Z</time>
      </trkpt>
      <trkpt lat="43.47287" lon="6.46164">
        <ele>131.55</ele>
        <time>2017-10-16T12:13:20Z</time>
      </trkpt>
      <trkpt lat="43.47293" lon="6.46139">
        <ele>131.53</ele>
        <time>2017-10-16T12:13:23Z</time>
      </trkpt>
      <trkpt lat="43.47302" lon="6.46114">
        <ele>131.33</ele>
        <time>2017-10-16T12:13:26Z</time>
      </trkpt>
      <trkpt lat="43.4731" lon="6.46088">
        <ele>129.54</ele>
        <time>2017-10-16T12:13:29Z</time>
      </trkpt>
      <trkpt lat="43.4732" lon="6.46065">
        <ele>129.37</ele>
        <time>2017-10-16T12:13:32Z</time>
      </trkpt>
      <trkpt lat="43.47336" lon="6.46053">
        <ele>128.34</ele>
        <time>2017-10-16T12:13:35Z</time>
      </trkpt>
      <trkpt lat="43.47356" lon="6.46049">
        <ele>128.33</ele>
        <time>2017-10-16T12:13:38Z</time>
      </trkpt>
      <trkpt lat="43.47374" lon="6.46047">
        <ele>128.33</ele>
        <time>2017-10-16T12:13:41Z</time>
      </trkpt>
      <trkpt lat="43.47393" lon="6.46044">
        <ele>128.33</ele>
        <time>2017-10-16T12:13:44Z</time>
      </trkpt>
      <trkpt lat="43.47413" lon="6.46031">
        <ele>128.33</ele>
        <time>2017-10-16T12:13:48Z</time>
      </trkpt>
      <trkpt lat="43.47431" lon="6.46014">
        <ele>129.32</ele>
        <time>2017-10-16T12:13:52Z</time>
      </trkpt>
      <trkpt lat="43.47451" lon="6.46006">
        <ele>132.32</ele>
        <time>2017-10-16T12:13:56Z</time>
      </trkpt>
      <trkpt lat="43.47473" lon="6.46003">
        <ele>133.33</ele>
        <time>2017-10-16T12:14:00Z</time>
      </trkpt>
      <trkpt lat="43.47495" lon="6.45997">
        <ele>133.36</ele>
        <time>2017-10-16T12:14:04Z</time>
      </trkpt>
      <trkpt lat="43.47516" lon="6.45991">
        <ele>132.38</ele>
        <time>2017-10-16T12:14:08Z</time>
      </trkpt>
      <trkpt lat="43.47538" lon="6.45986">
        <ele>133.33</ele>
        <time>2017-10-16T12:14:12Z</time>
      </trkpt>
      <trkpt lat="43.4756" lon="6.45981">
        <ele>132.37</ele>
        <time>2017-10-16T12:14:16Z</time>
      </trkpt>
      <trkpt lat="43.47582" lon="6.45978">
        <ele>133.29</ele>
        <time>2017-10-16T12:14:20Z</time>
      </trkpt>
      <trkpt lat="43.47602" lon="6.45974">
        <ele>133.33</ele>
        <time>2017-10-16T12:14:24Z</time>
      </trkpt>
      <trkpt lat="43.47623" lon="6.45968">
        <ele>133.33</ele>
        <time>2017-10-16T12:14:28Z</time>
      </trkpt>
      <trkpt lat="43.47643" lon="6.45961">
        <ele>134.13</ele>
        <time>2017-10-16T12:14:32Z</time>
      </trkpt>
      <trkpt lat="43.47663" lon="6.4595">
        <ele>135.33</ele>
        <time>2017-10-16T12:14:37Z</time>
      </trkpt>
      <trkpt lat="43.47681" lon="6.45933">
        <ele>135.33</ele>
        <time>2017-10-16T12:14:42Z</time>
      </trkpt>
      <trkpt lat="43.47697" lon="6.45916">
        <ele>133.45</ele>
        <time>2017-10-16T12:14:46Z</time>
      </trkpt>
      <trkpt lat="43.47716" lon="6.45897">
        <ele>132.53</ele>
        <time>2017-10-16T12:14:51Z</time>
      </trkpt>
      <trkpt lat="43.47731" lon="6.45882">
        <ele>132.5</ele>
        <time>2017-10-16T12:14:55Z</time>
      </trkpt>
      <trkpt lat="43.47745" lon="6.45865">
        <ele>132.33</ele>
        <time>2017-10-16T12:14:59Z</time>
      </trkpt>
      <trkpt lat="43.47759" lon="6.45846">
        <ele>133.32</ele>
        <time>2017-10-16T12:15:03Z</time>
      </trkpt>
      <trkpt lat="43.47772" lon="6.45829">
        <ele>134.29</ele>
        <time>2017-10-16T12:15:07Z</time>
      </trkpt>
      <trkpt lat="43.47786" lon="6.45813">
        <ele>135.33</ele>
        <time>2017-10-16T12:15:11Z</time>
      </trkpt>
      <trkpt lat="43.47802" lon="6.45793">
        <ele>135.3</ele>
        <time>2017-10-16T12:15:16Z</time>
      </trkpt>
      <trkpt lat="43.47816" lon="6.45773">
        <ele>135.49</ele>
        <time>2017-10-16T12:15:20Z</time>
      </trkpt>
      <trkpt lat="43.47829" lon="6.45756">
        <ele>136.33</ele>
        <time>2017-10-16T12:15:24Z</time>
      </trkpt>
      <trkpt lat="43.47843" lon="6.45738">
        <ele>137.32</ele>
        <time>2017-10-16T12:15:28Z</time>
      </trkpt>
      <trkpt lat="43.47856" lon="6.45721">
        <ele>136.18</ele>
        <time>2017-10-16T12:15:32Z</time>
      </trkpt>
      <trkpt lat="43.47873" lon="6.45701">
        <ele>137.29</ele>
        <time>2017-10-16T12:15:37Z</time>
      </trkpt>
      <trkpt lat="43.47886" lon="6.45683">
        <ele>137.33</ele>
        <time>2017-10-16T12:15:41Z</time>
      </trkpt>
      <trkpt lat="43.47903" lon="6.45661">
        <ele>137.52</ele>
        <time>2017-10-16T12:15:46Z</time>
      </trkpt>
      <trkpt lat="43.47916" lon="6.45644">
        <ele>138.33</ele>
        <time>2017-10-16T12:15:50Z</time>
      </trkpt>
      <trkpt lat="43.47931" lon="6.45626">
        <ele>138.33</ele>
        <time>2017-10-16T12:15:54Z</time>
      </trkpt>
      <trkpt lat="43.47948" lon="6.45606">
        <ele>139.32</ele>
        <time>2017-10-16T12:15:59Z</time>
      </trkpt>
      <trkpt lat="43.47964" lon="6.45586">
        <ele>138.14</ele>
        <time>2017-10-16T12:16:04Z</time>
      </trkpt>
      <trkpt lat="43.4798" lon="6.45573">
        <ele>139.33</ele>
        <time>2017-10-16T12:16:09Z</time>
      </trkpt>
      <trkpt lat="43.47999" lon="6.45563">
        <ele>140.33</ele>
        <time>2017-10-16T12:16:14Z</time>
      </trkpt>
      <trkpt lat="43.48018" lon="6.45551">
        <ele>141.33</ele>
        <time>2017-10-16T12:16:19Z</time>
      </trkpt>
      <trkpt lat="43.48037" lon="6.4554">
        <ele>142.29</ele>
        <time>2017-10-16T12:16:24Z</time>
      </trkpt>
      <trkpt lat="43.48055" lon="6.45531">
        <ele>144.29</ele>
        <time>2017-10-16T12:16:29Z</time>
      </trkpt>
      <trkpt lat="43.48074" lon="6.45521">
        <ele>144.36</ele>
        <time>2017-10-16T12:16:34Z</time>
      </trkpt>
      <trkpt lat="43.48091" lon="6.45511">
        <ele>145.33</ele>
        <time>2017-10-16T12:16:39Z</time>
      </trkpt>
      <trkpt lat="43.4811" lon="6.45499">
        <ele>145.17</ele>
        <time>2017-10-16T12:16:44Z</time>
      </trkpt>
      <trkpt lat="43.48128" lon="6.45486">
        <ele>145.93</ele>
        <time>2017-10-16T12:16:49Z</time>
      </trkpt>
      <trkpt lat="43.48146" lon="6.45477">
        <ele>148.29</ele>
        <time>2017-10-16T12:16:54Z</time>
      </trkpt>
      <trkpt lat="43.48164" lon="6.45464">
        <ele>147.33</ele>
        <time>2017-10-16T12:16:59Z</time>
      </trkpt>
      <trkpt lat="43.48183" lon="6.45455">
        <ele>149.53</ele>
        <time>2017-10-16T12:17:04Z</time>
      </trkpt>
      <trkpt lat="43.48202" lon="6.45443">
        <ele>149.33</ele>
        <time>2017-10-16T12:17:09Z</time>
      </trkpt>
      <trkpt lat="43.48222" lon="6.4543">
        <ele>147.54</ele>
        <time>2017-10-16T12:17:14Z</time>
      </trkpt>
      <trkpt lat="43.48243" lon="6.45415">
        <ele>144.73</ele>
        <time>2017-10-16T12:17:19Z</time>
      </trkpt>
      <trkpt lat="43.48261" lon="6.45399">
        <ele>145.33</ele>
        <time>2017-10-16T12:17:24Z</time>
      </trkpt>
      <trkpt lat="43.48271" lon="6.45375">
        <ele>145.33</ele>
        <time>2017-10-16T12:17:28Z</time>
      </trkpt>
      <trkpt lat="43.48273" lon="6.45346">
        <ele>143.54</ele>
        <time>2017-10-16T12:17:32Z</time>
      </trkpt>
      <trkpt lat="43.48269" lon="6.45318">
        <ele>143.33</ele>
        <time>2017-10-16T12:17:36Z</time>
      </trkpt>
      <trkpt lat="43.48264" lon="6.45292">
        <ele>142.49</ele>
        <time>2017-10-16T12:17:40Z</time>
      </trkpt>
      <trkpt lat="43.48261" lon="6.45266">
        <ele>144.33</ele>
        <time>2017-10-16T12:17:44Z</time>
      </trkpt>
      <trkpt lat="43.48256" lon="6.45242">
        <ele>145.14</ele>
        <time>2017-10-16T12:17:48Z</time>
      </trkpt>
      <trkpt lat="43.48256" lon="6.45212">
        <ele>141.77</ele>
        <time>2017-10-16T12:17:53Z</time>
      </trkpt>
      <trkpt lat="43.48265" lon="6.45184">
        <ele>141.33</ele>
        <time>2017-10-16T12:17:58Z</time>
      </trkpt>
      <trkpt lat="43.48277" lon="6.45159">
        <ele>141.13</ele>
        <time>2017-10-16T12:18:03Z</time>
      </trkpt>
      <trkpt lat="43.48289" lon="6.45133">
        <ele>139.33</ele>
        <time>2017-10-16T12:18:08Z</time>
      </trkpt>
      <trkpt lat="43.48305" lon="6.45112">
        <ele>139.33</ele>
        <time>2017-10-16T12:18:13Z</time>
      </trkpt>
      <trkpt lat="43.48322" lon="6.45092">
        <ele>140.32</ele>
        <time>2017-10-16T12:18:18Z</time>
      </trkpt>
      <trkpt lat="43.48339" lon="6.45072">
        <ele>140.33</ele>
        <time>2017-10-16T12:18:23Z</time>
      </trkpt>
      <trkpt lat="43.48355" lon="6.45054">
        <ele>142.29</ele>
        <time>2017-10-16T12:18:28Z</time>
      </trkpt>
      <trkpt lat="43.4837" lon="6.45035">
        <ele>143.33</ele>
        <time>2017-10-16T12:18:33Z</time>
      </trkpt>
      <trkpt lat="43.48386" lon="6.45017">
        <ele>144.49</ele>
        <time>2017-10-16T12:18:38Z</time>
      </trkpt>
      <trkpt lat="43.48401" lon="6.44999">
        <ele>145.14</ele>
        <time>2017-10-16T12:18:43Z</time>
      </trkpt>
      <trkpt lat="43.48416" lon="6.4498">
        <ele>146.33</ele>
        <time>2017-10-16T12:18:48Z</time>
      </trkpt>
      <trkpt lat="43.4843" lon="6.44963">
        <ele>148.33</ele>
        <time>2017-10-16T12:18:53Z</time>
      </trkpt>
      <trkpt lat="43.48446" lon="6.4495">
        <ele>150.13</ele>
        <time>2017-10-16T12:18:58Z</time>
      </trkpt>
      <trkpt lat="43.48464" lon="6.44937">
        <ele>150.13</ele>
        <time>2017-10-16T12:19:03Z</time>
      </trkpt>
      <trkpt lat="43.48481" lon="6.44926">
        <ele>153.09</ele>
        <time>2017-10-16T12:19:08Z</time>
      </trkpt>
      <trkpt lat="43.485" lon="6.44914">
        <ele>153.49</ele>
        <time>2017-10-16T12:19:13Z</time>
      </trkpt>
      <trkpt lat="43.48518" lon="6.44904">
        <ele>154.33</ele>
        <time>2017-10-16T12:19:18Z</time>
      </trkpt>
      <trkpt lat="43.48538" lon="6.4489">
        <ele>154.49</ele>
        <time>2017-10-16T12:19:23Z</time>
      </trkpt>
      <trkpt lat="43.48556" lon="6.44876">
        <ele>153.33</ele>
        <time>2017-10-16T12:19:28Z</time>
      </trkpt>
      <trkpt lat="43.48572" lon="6.44864">
        <ele>153.33</ele>
        <time>2017-10-16T12:19:32Z</time>
      </trkpt>
      <trkpt lat="43.48588" lon="6.44853">
        <ele>153.33</ele>
        <time>2017-10-16T12:19:36Z</time>
      </trkpt>
      <trkpt lat="43.48605" lon="6.44841">
        <ele>152.37</ele>
        <time>2017-10-16T12:19:40Z</time>
      </trkpt>
      <trkpt lat="43.48624" lon="6.4483">
        <ele>154.09</ele>
        <time>2017-10-16T12:19:45Z</time>
      </trkpt>
      <trkpt lat="43.48641" lon="6.44814">
        <ele>155.29</ele>
        <time>2017-10-16T12:19:50Z</time>
      </trkpt>
      <trkpt lat="43.48656" lon="6.44796">
        <ele>155.33</ele>
        <time>2017-10-16T12:19:55Z</time>
      </trkpt>
      <trkpt lat="43.4867" lon="6.44776">
        <ele>156.33</ele>
        <time>2017-10-16T12:20:00Z</time>
      </trkpt>
      <trkpt lat="43.48685" lon="6.44755">
        <ele>158.96</ele>
        <time>2017-10-16T12:20:06Z</time>
      </trkpt>
      <trkpt lat="43.48699" lon="6.44734">
        <ele>157.37</ele>
        <time>2017-10-16T12:20:11Z</time>
      </trkpt>
      <trkpt lat="43.48713" lon="6.44713">
        <ele>156.33</ele>
        <time>2017-10-16T12:20:16Z</time>
      </trkpt>
      <trkpt lat="43.48728" lon="6.44692">
        <ele>157.33</ele>
        <time>2017-10-16T12:20:22Z</time>
      </trkpt>
      <trkpt lat="43.4874" lon="6.44672">
        <ele>156.38</ele>
        <time>2017-10-16T12:20:27Z</time>
      </trkpt>
      <trkpt lat="43.4875" lon="6.44651">
        <ele>155.33</ele>
        <time>2017-10-16T12:20:32Z</time>
      </trkpt>
      <trkpt lat="43.48761" lon="6.4463">
        <ele>157.32</ele>
        <time>2017-10-16T12:20:37Z</time>
      </trkpt>
      <trkpt lat="43.4877" lon="6.44607">
        <ele>157.33</ele>
        <time>2017-10-16T12:20:42Z</time>
      </trkpt>
      <trkpt lat="43.48779" lon="6.44584">
        <ele>157.34</ele>
        <time>2017-10-16T12:20:47Z</time>
      </trkpt>
      <trkpt lat="43.48789" lon="6.44561">
        <ele>157.33</ele>
        <time>2017-10-16T12:20:52Z</time>
      </trkpt>
      <trkpt lat="43.48799" lon="6.4454">
        <ele>157.33</ele>
        <time>2017-10-16T12:20:57Z</time>
      </trkpt>
      <trkpt lat="43.48816" lon="6.44523">
        <ele>158.33</ele>
        <time>2017-10-16T12:21:03Z</time>
      </trkpt>
      <trkpt lat="43.48835" lon="6.44519">
        <ele>159.29</ele>
        <time>2017-10-16T12:21:08Z</time>
      </trkpt>
      <trkpt lat="43.48855" lon="6.44524">
        <ele>161.16</ele>
        <time>2017-10-16T12:21:14Z</time>
      </trkpt>
      <trkpt lat="43.48876" lon="6.44532">
        <ele>163.13</ele>
        <time>2017-10-16T12:21:20Z</time>
      </trkpt>
      <trkpt lat="43.48896" lon="6.44539">
        <ele>162.37</ele>
        <time>2017-10-16T12:21:26Z</time>
      </trkpt>
      <trkpt lat="43.48915" lon="6.44547">
        <ele>163.33</ele>
        <time>2017-10-16T12:21:32Z</time>
      </trkpt>
      <trkpt lat="43.48935" lon="6.4455">
        <ele>163.37</ele>
        <time>2017-10-16T12:21:38Z</time>
      </trkpt>
      <trkpt lat="43.48955" lon="6.44542">
        <ele>165.29</ele>
        <time>2017-10-16T12:21:45Z</time>
      </trkpt>
      <trkpt lat="43.48961" lon="6.44516">
        <ele>167.14</ele>
        <time>2017-10-16T12:21:52Z</time>
      </trkpt>
      <trkpt lat="43.48955" lon="6.44493">
        <ele>167.37</ele>
        <time>2017-10-16T12:21:59Z</time>
      </trkpt>
      <trkpt lat="43.48949" lon="6.4447">
        <ele>169.33</ele>
        <time>2017-10-16T12:22:07Z</time>
      </trkpt>
      <trkpt lat="43.48942" lon="6.44444">
        <ele>170.49</ele>
        <time>2017-10-16T12:22:15Z</time>
      </trkpt>
      <trkpt lat="43.48941" lon="6.44417">
        <ele>171.32</ele>
        <time>2017-10-16T12:22:23Z</time>
      </trkpt>
      <trkpt lat="43.4894" lon="6.4439">
        <ele>176.27</ele>
        <time>2017-10-16T12:22:31Z</time>
      </trkpt>
      <trkpt lat="43.48938" lon="6.44365">
        <ele>174.21</ele>
        <time>2017-10-16T12:22:38Z</time>
      </trkpt>
      <trkpt lat="43.4894" lon="6.44338">
        <ele>176.32</ele>
        <time>2017-10-16T12:22:46Z</time>
      </trkpt>
      <trkpt lat="43.48943" lon="6.44312">
        <ele>178.49</ele>
        <time>2017-10-16T12:22:54Z</time>
      </trkpt>
      <trkpt lat="43.48943" lon="6.44287">
        <ele>178.13</ele>
        <time>2017-10-16T12:23:01Z</time>
      </trkpt>
      <trkpt lat="43.48944" lon="6.44262">
        <ele>178.34</ele>
        <time>2017-10-16T12:23:09Z</time>
      </trkpt>
      <trkpt lat="43.48945" lon="6.44237">
        <ele>179.13</ele>
        <time>2017-10-16T12:23:17Z</time>
      </trkpt>
      <trkpt lat="43.4894" lon="6.44211">
        <ele>178.53</ele>
        <time>2017-10-16T12:23:25Z</time>
      </trkpt>
      <trkpt lat="43.48929" lon="6.44189">
        <ele>180.33</ele>
        <time>2017-10-16T12:23:32Z</time>
      </trkpt>
      <trkpt lat="43.48918" lon="6.44168">
        <ele>182.32</ele>
        <time>2017-10-16T12:23:39Z</time>
      </trkpt>
      <trkpt lat="43.48902" lon="6.44148">
        <ele>181.37</ele>
        <time>2017-10-16T12:23:44Z</time>
      </trkpt>
      <trkpt lat="43.48886" lon="6.44127">
        <ele>182.13</ele>
        <time>2017-10-16T12:23:48Z</time>
      </trkpt>
      <trkpt lat="43.48872" lon="6.44106">
        <ele>183.29</ele>
        <time>2017-10-16T12:23:53Z</time>
      </trkpt>
      <trkpt lat="43.48858" lon="6.44088">
        <ele>180.54</ele>
        <time>2017-10-16T12:23:58Z</time>
      </trkpt>
      <trkpt lat="43.48851" lon="6.44064">
        <ele>179.33</ele>
        <time>2017-10-16T12:24:05Z</time>
      </trkpt>
      <trkpt lat="43.48845" lon="6.4404">
        <ele>178.34</ele>
        <time>2017-10-16T12:24:11Z</time>
      </trkpt>
      <trkpt lat="43.48839" lon="6.44016">
        <ele>178.14</ele>
        <time>2017-10-16T12:24:17Z</time>
      </trkpt>
      <trkpt lat="43.48831" lon="6.4399">
        <ele>178.13</ele>
        <time>2017-10-16T12:24:24Z</time>
      </trkpt>
      <trkpt lat="43.48829" lon="6.43961">
        <ele>180.12</ele>
        <time>2017-10-16T12:24:31Z</time>
      </trkpt>
      <trkpt lat="43.48833" lon="6.43935">
        <ele>181.26</ele>
        <time>2017-10-16T12:24:39Z</time>
      </trkpt>
      <trkpt lat="43.48841" lon="6.4391">
        <ele>184.13</ele>
        <time>2017-10-16T12:24:46Z</time>
      </trkpt>
      <trkpt lat="43.48849" lon="6.43885">
        <ele>184.49</ele>
        <time>2017-10-16T12:24:53Z</time>
      </trkpt>
      <trkpt lat="43.48857" lon="6.4386">
        <ele>185.1</ele>
        <time>2017-10-16T12:25:01Z</time>
      </trkpt>
      <trkpt lat="43.48866" lon="6.43835">
        <ele>186.57</ele>
        <time>2017-10-16T12:25:10Z</time>
      </trkpt>
      <trkpt lat="43.48871" lon="6.4381">
        <ele>187.33</ele>
        <time>2017-10-16T12:25:16Z</time>
      </trkpt>
      <trkpt lat="43.48877" lon="6.43786">
        <ele>187.29</ele>
        <time>2017-10-16T12:25:23Z</time>
      </trkpt>
      <trkpt lat="43.48882" lon="6.43759">
        <ele>188.33</ele>
        <time>2017-10-16T12:25:31Z</time>
      </trkpt>
      <trkpt lat="43.48886" lon="6.43732">
        <ele>190.1</ele>
        <time>2017-10-16T12:25:39Z</time>
      </trkpt>
      <trkpt lat="43.4889" lon="6.43706">
        <ele>190.33</ele>
        <time>2017-10-16T12:25:46Z</time>
      </trkpt>
      <trkpt lat="43.48892" lon="6.43679">
        <ele>191.17</ele>
        <time>2017-10-16T12:25:53Z</time>
      </trkpt>
      <trkpt lat="43.48896" lon="6.43653">
        <ele>191.33</ele>
        <time>2017-10-16T12:26:01Z</time>
      </trkpt>
      <trkpt lat="43.48896" lon="6.43628">
        <ele>194.12</ele>
        <time>2017-10-16T12:26:09Z</time>
      </trkpt>
      <trkpt lat="43.48895" lon="6.436">
        <ele>195.36</ele>
        <time>2017-10-16T12:26:17Z</time>
      </trkpt>
      <trkpt lat="43.48894" lon="6.43573">
        <ele>197.32</ele>
        <time>2017-10-16T12:26:25Z</time>
      </trkpt>
      <trkpt lat="43.48891" lon="6.43545">
        <ele>197.33</ele>
        <time>2017-10-16T12:26:32Z</time>
      </trkpt>
      <trkpt lat="43.48884" lon="6.43519">
        <ele>199.33</ele>
        <time>2017-10-16T12:26:39Z</time>
      </trkpt>
      <trkpt lat="43.48874" lon="6.43495">
        <ele>199.52</ele>
        <time>2017-10-16T12:26:45Z</time>
      </trkpt>
      <trkpt lat="43.48868" lon="6.4347">
        <ele>200.33</ele>
        <time>2017-10-16T12:26:51Z</time>
      </trkpt>
      <trkpt lat="43.48869" lon="6.43442">
        <ele>200.29</ele>
        <time>2017-10-16T12:26:58Z</time>
      </trkpt>
      <trkpt lat="43.4887" lon="6.43414">
        <ele>202.13</ele>
        <time>2017-10-16T12:27:05Z</time>
      </trkpt>
      <trkpt lat="43.48869" lon="6.43389">
        <ele>202.29</ele>
        <time>2017-10-16T12:27:11Z</time>
      </trkpt>
      <trkpt lat="43.48864" lon="6.43365">
        <ele>200.34</ele>
        <time>2017-10-16T12:27:17Z</time>
      </trkpt>
      <trkpt lat="43.4886" lon="6.43339">
        <ele>202.32</ele>
        <time>2017-10-16T12:27:24Z</time>
      </trkpt>
      <trkpt lat="43.48856" lon="6.43314">
        <ele>202.53</ele>
        <time>2017-10-16T12:27:30Z</time>
      </trkpt>
      <trkpt lat="43.48859" lon="6.43287">
        <ele>205.28</ele>
        <time>2017-10-16T12:27:37Z</time>
      </trkpt>
      <trkpt lat="43.48864" lon="6.43262">
        <ele>205.51</ele>
        <time>2017-10-16T12:27:44Z</time>
      </trkpt>
      <trkpt lat="43.4887" lon="6.43236">
        <ele>208.13</ele>
        <time>2017-10-16T12:27:52Z</time>
      </trkpt>
      <trkpt lat="43.48873" lon="6.43208">
        <ele>209.32</ele>
        <time>2017-10-16T12:27:59Z</time>
      </trkpt>
      <trkpt lat="43.48876" lon="6.43184">
        <ele>210.49</ele>
        <time>2017-10-16T12:28:05Z</time>
      </trkpt>
      <trkpt lat="43.48881" lon="6.43158">
        <ele>212.33</ele>
        <time>2017-10-16T12:28:12Z</time>
      </trkpt>
      <trkpt lat="43.48886" lon="6.4313">
        <ele>212.53</ele>
        <time>2017-10-16T12:28:20Z</time>
      </trkpt>
      <trkpt lat="43.48902" lon="6.43119">
        <ele>213.29</ele>
        <time>2017-10-16T12:28:31Z</time>
      </trkpt>
      <trkpt lat="43.48919" lon="6.4313">
        <ele>216.13</ele>
        <time>2017-10-16T12:28:39Z</time>
      </trkpt>
      <trkpt lat="43.48936" lon="6.43142">
        <ele>220.48</ele>
        <time>2017-10-16T12:28:48Z</time>
      </trkpt>
      <trkpt lat="43.48953" lon="6.4315">
        <ele>222.33</ele>
        <time>2017-10-16T12:28:55Z</time>
      </trkpt>
      <trkpt lat="43.48969" lon="6.43134">
        <ele>218.38</ele>
        <time>2017-10-16T12:29:03Z</time>
      </trkpt>
      <trkpt lat="43.48981" lon="6.43108">
        <ele>215.54</ele>
        <time>2017-10-16T12:29:08Z</time>
      </trkpt>
      <trkpt lat="43.48991" lon="6.43086">
        <ele>215.33</ele>
        <time>2017-10-16T12:29:14Z</time>
      </trkpt>
      <trkpt lat="43.49007" lon="6.4307">
        <ele>214.56</ele>
        <time>2017-10-16T12:29:21Z</time>
      </trkpt>
      <trkpt lat="43.49022" lon="6.43055">
        <ele>212.55</ele>
        <time>2017-10-16T12:29:26Z</time>
      </trkpt>
      <trkpt lat="43.49039" lon="6.4304">
        <ele>213.51</ele>
        <time>2017-10-16T12:29:33Z</time>
      </trkpt>
      <trkpt lat="43.49053" lon="6.43025">
        <ele>212.33</ele>
        <time>2017-10-16T12:29:39Z</time>
      </trkpt>
      <trkpt lat="43.49069" lon="6.4301">
        <ele>215.69</ele>
        <time>2017-10-16T12:29:47Z</time>
      </trkpt>
      <trkpt lat="43.49085" lon="6.42991">
        <ele>216.14</ele>
        <time>2017-10-16T12:29:53Z</time>
      </trkpt>
      <trkpt lat="43.49095" lon="6.42966">
        <ele>216.34</ele>
        <time>2017-10-16T12:29:59Z</time>
      </trkpt>
      <trkpt lat="43.49101" lon="6.42941">
        <ele>215.5</ele>
        <time>2017-10-16T12:30:05Z</time>
      </trkpt>
      <trkpt lat="43.49104" lon="6.42914">
        <ele>214.34</ele>
        <time>2017-10-16T12:30:10Z</time>
      </trkpt>
      <trkpt lat="43.49108" lon="6.42888">
        <ele>218.21</ele>
        <time>2017-10-16T12:30:14Z</time>
      </trkpt>
      <trkpt lat="43.49116" lon="6.42863">
        <ele>217.58</ele>
        <time>2017-10-16T12:30:19Z</time>
      </trkpt>
      <trkpt lat="43.4913" lon="6.42846">
        <ele>214.5</ele>
        <time>2017-10-16T12:30:29Z</time>
      </trkpt>
      <trkpt lat="43.49148" lon="6.42855">
        <ele>212.3</ele>
        <time>2017-10-16T12:30:35Z</time>
      </trkpt>
      <trkpt lat="43.49168" lon="6.42856">
        <ele>215.29</ele>
        <time>2017-10-16T12:30:44Z</time>
      </trkpt>
      <trkpt lat="43.49186" lon="6.42852">
        <ele>214.34</ele>
        <time>2017-10-16T12:30:55Z</time>
      </trkpt>
      <trkpt lat="43.49201" lon="6.42833">
        <ele>213.37</ele>
        <time>2017-10-16T12:31:08Z</time>
      </trkpt>
      <trkpt lat="43.49216" lon="6.42819">
        <ele>212.29</ele>
        <time>2017-10-16T12:31:31Z</time>
      </trkpt>
      <trkpt lat="43.49233" lon="6.4283">
        <ele>211.37</ele>
        <time>2017-10-16T12:31:41Z</time>
      </trkpt>
      <trkpt lat="43.49252" lon="6.4284">
        <ele>209.34</ele>
        <time>2017-10-16T12:31:50Z</time>
      </trkpt>
      <trkpt lat="43.4927" lon="6.42839">
        <ele>202.33</ele>
        <time>2017-10-16T12:32:15Z</time>
      </trkpt>
      <trkpt lat="43.49279" lon="6.42818">
        <ele>200.33</ele>
        <time>2017-10-16T12:33:02Z</time>
      </trkpt>
      <trkpt lat="43.49288" lon="6.42795">
        <ele>198.34</ele>
        <time>2017-10-16T12:33:11Z</time>
      </trkpt>
      <trkpt lat="43.49296" lon="6.42771">
        <ele>195.33</ele>
        <time>2017-10-16T12:33:53Z</time>
      </trkpt>
      <trkpt lat="43.49302" lon="6.42747">
        <ele>190.37</ele>
        <time>2017-10-16T12:34:06Z</time>
      </trkpt>
      <trkpt lat="43.4931" lon="6.42724">
        <ele>184.57</ele>
        <time>2017-10-16T12:34:18Z</time>
      </trkpt>
      <trkpt lat="43.4932" lon="6.42701">
        <ele>182.37</ele>
        <time>2017-10-16T12:34:28Z</time>
      </trkpt>
      <trkpt lat="43.49332" lon="6.42682">
        <ele>180.12</ele>
        <time>2017-10-16T12:35:08Z</time>
      </trkpt>
      <trkpt lat="43.49348" lon="6.42694">
        <ele>184.13</ele>
        <time>2017-10-16T12:35:35Z</time>
      </trkpt>
      <trkpt lat="43.49361" lon="6.42711">
        <ele>187.33</ele>
        <time>2017-10-16T12:35:45Z</time>
      </trkpt>
      <trkpt lat="43.49374" lon="6.4273">
        <ele>189.32</ele>
        <time>2017-10-16T12:35:54Z</time>
      </trkpt>
      <trkpt lat="43.49388" lon="6.42749">
        <ele>188.21</ele>
        <time>2017-10-16T12:36:02Z</time>
      </trkpt>
      <trkpt lat="43.49403" lon="6.42766">
        <ele>185.57</ele>
        <time>2017-10-16T12:36:09Z</time>
      </trkpt>
      <trkpt lat="43.49417" lon="6.42786">
        <ele>189.13</ele>
        <time>2017-10-16T12:36:18Z</time>
      </trkpt>
      <trkpt lat="43.4943" lon="6.42804">
        <ele>191.13</ele>
        <time>2017-10-16T12:36:27Z</time>
      </trkpt>
      <trkpt lat="43.49443" lon="6.42824">
        <ele>187.37</ele>
        <time>2017-10-16T12:36:39Z</time>
      </trkpt>
      <trkpt lat="43.49455" lon="6.42844">
        <ele>187.33</ele>
        <time>2017-10-16T12:36:50Z</time>
      </trkpt>
      <trkpt lat="43.49471" lon="6.42857">
        <ele>190.96</ele>
        <time>2017-10-16T12:37:06Z</time>
      </trkpt>
      <trkpt lat="43.49488" lon="6.42866">
        <ele>193.33</ele>
        <time>2017-10-16T12:37:35Z</time>
      </trkpt>
      <trkpt lat="43.49503" lon="6.42881">
        <ele>196.29</ele>
        <time>2017-10-16T12:37:56Z</time>
      </trkpt>
      <trkpt lat="43.49522" lon="6.4289">
        <ele>196.53</ele>
        <time>2017-10-16T12:38:08Z</time>
      </trkpt>
      <trkpt lat="43.49539" lon="6.42902">
        <ele>200.33</ele>
        <time>2017-10-16T12:38:18Z</time>
      </trkpt>
      <trkpt lat="43.49555" lon="6.42918">
        <ele>205.25</ele>
        <time>2017-10-16T12:38:28Z</time>
      </trkpt>
      <trkpt lat="43.49571" lon="6.4293">
        <ele>207.33</ele>
        <time>2017-10-16T12:38:42Z</time>
      </trkpt>
      <trkpt lat="43.49586" lon="6.42944">
        <ele>208.17</ele>
        <time>2017-10-16T12:38:59Z</time>
      </trkpt>
      <trkpt lat="43.49601" lon="6.4296">
        <ele>208.29</ele>
        <time>2017-10-16T12:39:24Z</time>
      </trkpt>
      <trkpt lat="43.49616" lon="6.42974">
        <ele>211.29</ele>
        <time>2017-10-16T12:39:42Z</time>
      </trkpt>
      <trkpt lat="43.49631" lon="6.42992">
        <ele>214.13</ele>
        <time>2017-10-16T12:40:03Z</time>
      </trkpt>
      <trkpt lat="43.49645" lon="6.43008">
        <ele>213.33</ele>
        <time>2017-10-16T12:40:14Z</time>
      </trkpt>
      <trkpt lat="43.4966" lon="6.43025">
        <ele>214.33</ele>
        <time>2017-10-16T12:40:23Z</time>
      </trkpt>
      <trkpt lat="43.49677" lon="6.43039">
        <ele>211.17</ele>
        <time>2017-10-16T12:40:58Z</time>
      </trkpt>
      <trkpt lat="43.49691" lon="6.43056">
        <ele>206.41</ele>
        <time>2017-10-16T12:41:11Z</time>
      </trkpt>
      <trkpt lat="43.49705" lon="6.43073">
        <ele>205.49</ele>
        <time>2017-10-16T12:41:22Z</time>
      </trkpt>
      <trkpt lat="43.49721" lon="6.43088">
        <ele>203.33</ele>
        <time>2017-10-16T12:41:28Z</time>
      </trkpt>
      <trkpt lat="43.49737" lon="6.43076">
        <ele>199.14</ele>
        <time>2017-10-16T12:43:03Z</time>
      </trkpt>
      <trkpt lat="43.49748" lon="6.43056">
        <ele>201.13</ele>
        <time>2017-10-16T12:43:13Z</time>
      </trkpt>
      <trkpt lat="43.49766" lon="6.43054">
        <ele>206.13</ele>
        <time>2017-10-16T12:43:23Z</time>
      </trkpt>
      <trkpt lat="43.49784" lon="6.43054">
        <ele>208.13</ele>
        <time>2017-10-16T12:43:32Z</time>
      </trkpt>
      <trkpt lat="43.49803" lon="6.43054">
        <ele>208.33</ele>
        <time>2017-10-16T12:43:40Z</time>
      </trkpt>
      <trkpt lat="43.49822" lon="6.43049">
        <ele>209.33</ele>
        <time>2017-10-16T12:43:49Z</time>
      </trkpt>
      <trkpt lat="43.4984" lon="6.43045">
        <ele>207.41</ele>
        <time>2017-10-16T12:44:01Z</time>
      </trkpt>
      <trkpt lat="43.49859" lon="6.4305">
        <ele>207.37</ele>
        <time>2017-10-16T12:44:10Z</time>
      </trkpt>
      <trkpt lat="43.49877" lon="6.43048">
        <ele>206.14</ele>
        <time>2017-10-16T12:44:16Z</time>
      </trkpt>
      <trkpt lat="43.49895" lon="6.43041">
        <ele>206.33</ele>
        <time>2017-10-16T12:44:24Z</time>
      </trkpt>
      <trkpt lat="43.49906" lon="6.43022">
        <ele>201.37</ele>
        <time>2017-10-16T12:44:44Z</time>
      </trkpt>
      <trkpt lat="43.49919" lon="6.43001">
        <ele>202.13</ele>
        <time>2017-10-16T12:44:53Z</time>
      </trkpt>
      <trkpt lat="43.49928" lon="6.42977">
        <ele>200.33</ele>
        <time>2017-10-16T12:45:01Z</time>
      </trkpt>
      <trkpt lat="43.49947" lon="6.42977">
        <ele>202.33</ele>
        <time>2017-10-16T12:45:11Z</time>
      </trkpt>
      <trkpt lat="43.49962" lon="6.42959">
        <ele>202.52</ele>
        <time>2017-10-16T12:45:20Z</time>
      </trkpt>
      <trkpt lat="43.49975" lon="6.4294">
        <ele>202.34</ele>
        <time>2017-10-16T12:45:27Z</time>
      </trkpt>
      <trkpt lat="43.49991" lon="6.42926">
        <ele>202.33</ele>
        <time>2017-10-16T12:45:34Z</time>
      </trkpt>
      <trkpt lat="43.50006" lon="6.42911">
        <ele>202.49</ele>
        <time>2017-10-16T12:45:48Z</time>
      </trkpt>
      <trkpt lat="43.50022" lon="6.42893">
        <ele>203.13</ele>
        <time>2017-10-16T12:45:57Z</time>
      </trkpt>
      <trkpt lat="43.50039" lon="6.42881">
        <ele>203.34</ele>
        <time>2017-10-16T12:46:05Z</time>
      </trkpt>
      <trkpt lat="43.50057" lon="6.42875">
        <ele>202.33</ele>
        <time>2017-10-16T12:46:13Z</time>
      </trkpt>
      <trkpt lat="43.50075" lon="6.42867">
        <ele>204.29</ele>
        <time>2017-10-16T12:46:22Z</time>
      </trkpt>
      <trkpt lat="43.50092" lon="6.42861">
        <ele>205.12</ele>
        <time>2017-10-16T12:46:31Z</time>
      </trkpt>
      <trkpt lat="43.50111" lon="6.42863">
        <ele>206.33</ele>
        <time>2017-10-16T12:46:39Z</time>
      </trkpt>
      <trkpt lat="43.50129" lon="6.4287">
        <ele>207.33</ele>
        <time>2017-10-16T12:46:47Z</time>
      </trkpt>
      <trkpt lat="43.50148" lon="6.42876">
        <ele>209.32</ele>
        <time>2017-10-16T12:46:55Z</time>
      </trkpt>
      <trkpt lat="43.50166" lon="6.4287">
        <ele>206.54</ele>
        <time>2017-10-16T12:47:02Z</time>
      </trkpt>
      <trkpt lat="43.50182" lon="6.42858">
        <ele>207.33</ele>
        <time>2017-10-16T12:47:09Z</time>
      </trkpt>
      <trkpt lat="43.50201" lon="6.42853">
        <ele>206.37</ele>
        <time>2017-10-16T12:47:18Z</time>
      </trkpt>
      <trkpt lat="43.5022" lon="6.42843">
        <ele>211.49</ele>
        <time>2017-10-16T12:47:34Z</time>
      </trkpt>
      <trkpt lat="43.50232" lon="6.42823">
        <ele>204.82</ele>
        <time>2017-10-16T12:47:41Z</time>
      </trkpt>
      <trkpt lat="43.50245" lon="6.42805">
        <ele>203.13</ele>
        <time>2017-10-16T12:47:48Z</time>
      </trkpt>
      <trkpt lat="43.50262" lon="6.42794">
        <ele>206.28</ele>
        <time>2017-10-16T12:47:58Z</time>
      </trkpt>
      <trkpt lat="43.50279" lon="6.42785">
        <ele>212.09</ele>
        <time>2017-10-16T12:48:08Z</time>
      </trkpt>
      <trkpt lat="43.50292" lon="6.42768">
        <ele>208.35</ele>
        <time>2017-10-16T12:48:16Z</time>
      </trkpt>
      <trkpt lat="43.503" lon="6.42745">
        <ele>206.29</ele>
        <time>2017-10-16T12:48:24Z</time>
      </trkpt>
      <trkpt lat="43.50313" lon="6.42727">
        <ele>206.49</ele>
        <time>2017-10-16T12:48:33Z</time>
      </trkpt>
      <trkpt lat="43.50323" lon="6.42706">
        <ele>209.32</ele>
        <time>2017-10-16T12:48:41Z</time>
      </trkpt>
      <trkpt lat="43.50334" lon="6.42683">
        <ele>210.52</ele>
        <time>2017-10-16T12:48:53Z</time>
      </trkpt>
      <trkpt lat="43.50345" lon="6.4266">
        <ele>208.74</ele>
        <time>2017-10-16T12:49:03Z</time>
      </trkpt>
      <trkpt lat="43.50356" lon="6.42638">
        <ele>210.28</ele>
        <time>2017-10-16T12:49:13Z</time>
      </trkpt>
      <trkpt lat="43.50367" lon="6.42615">
        <ele>208.97</ele>
        <time>2017-10-16T12:49:21Z</time>
      </trkpt>
      <trkpt lat="43.50378" lon="6.42595">
        <ele>211.28</ele>
        <time>2017-10-16T12:49:28Z</time>
      </trkpt>
      <trkpt lat="43.5039" lon="6.42571">
        <ele>211.18</ele>
        <time>2017-10-16T12:49:37Z</time>
      </trkpt>
      <trkpt lat="43.50398" lon="6.42546">
        <ele>207.37</ele>
        <time>2017-10-16T12:49:44Z</time>
      </trkpt>
      <trkpt lat="43.50402" lon="6.42519">
        <ele>206.34</ele>
        <time>2017-10-16T12:49:51Z</time>
      </trkpt>
      <trkpt lat="43.50407" lon="6.42494">
        <ele>207.33</ele>
        <time>2017-10-16T12:49:58Z</time>
      </trkpt>
      <trkpt lat="43.50413" lon="6.42468">
        <ele>207.33</ele>
        <time>2017-10-16T12:50:06Z</time>
      </trkpt>
      <trkpt lat="43.50418" lon="6.42442">
        <ele>206.33</ele>
        <time>2017-10-16T12:50:14Z</time>
      </trkpt>
      <trkpt lat="43.50422" lon="6.42417">
        <ele>206.29</ele>
        <time>2017-10-16T12:50:22Z</time>
      </trkpt>
      <trkpt lat="43.5043" lon="6.42392">
        <ele>206.33</ele>
        <time>2017-10-16T12:50:31Z</time>
      </trkpt>
      <trkpt lat="43.50442" lon="6.42374">
        <ele>207.33</ele>
        <time>2017-10-16T12:50:40Z</time>
      </trkpt>
      <trkpt lat="43.50453" lon="6.42352">
        <ele>207.53</ele>
        <time>2017-10-16T12:50:49Z</time>
      </trkpt>
      <trkpt lat="43.50462" lon="6.42328">
        <ele>207.33</ele>
        <time>2017-10-16T12:50:58Z</time>
      </trkpt>
      <trkpt lat="43.5047" lon="6.42306">
        <ele>209.16</ele>
        <time>2017-10-16T12:51:07Z</time>
      </trkpt>
      <trkpt lat="43.50477" lon="6.42282">
        <ele>209.34</ele>
        <time>2017-10-16T12:51:16Z</time>
      </trkpt>
      <trkpt lat="43.50495" lon="6.42275">
        <ele>211.33</ele>
        <time>2017-10-16T12:51:26Z</time>
      </trkpt>
      <trkpt lat="43.50512" lon="6.42265">
        <ele>211.52</ele>
        <time>2017-10-16T12:51:35Z</time>
      </trkpt>
      <trkpt lat="43.50526" lon="6.42246">
        <ele>212.13</ele>
        <time>2017-10-16T12:51:45Z</time>
      </trkpt>
      <trkpt lat="43.50545" lon="6.42257">
        <ele>213.29</ele>
        <time>2017-10-16T12:51:53Z</time>
      </trkpt>
      <trkpt lat="43.50564" lon="6.42264">
        <ele>214.13</ele>
        <time>2017-10-16T12:51:59Z</time>
      </trkpt>
      <trkpt lat="43.50584" lon="6.42262">
        <ele>216.29</ele>
        <time>2017-10-16T12:52:05Z</time>
      </trkpt>
      <trkpt lat="43.50599" lon="6.42245">
        <ele>214.58</ele>
        <time>2017-10-16T12:52:12Z</time>
      </trkpt>
      <trkpt lat="43.50613" lon="6.42226">
        <ele>212.33</ele>
        <time>2017-10-16T12:52:18Z</time>
      </trkpt>
      <trkpt lat="43.5063" lon="6.42214">
        <ele>216.08</ele>
        <time>2017-10-16T12:52:27Z</time>
      </trkpt>
      <trkpt lat="43.5064" lon="6.42192">
        <ele>218.37</ele>
        <time>2017-10-16T12:52:36Z</time>
      </trkpt>
      <trkpt lat="43.50652" lon="6.42171">
        <ele>217.53</ele>
        <time>2017-10-16T12:52:47Z</time>
      </trkpt>
      <trkpt lat="43.50666" lon="6.42155">
        <ele>217.34</ele>
        <time>2017-10-16T12:53:00Z</time>
      </trkpt>
      <trkpt lat="43.50674" lon="6.4213">
        <ele>216.33</ele>
        <time>2017-10-16T12:53:37Z</time>
      </trkpt>
      <trkpt lat="43.50664" lon="6.42104">
        <ele>216.33</ele>
        <time>2017-10-16T12:53:44Z</time>
      </trkpt>
      <trkpt lat="43.5065" lon="6.42085">
        <ele>216.33</ele>
        <time>2017-10-16T12:53:50Z</time>
      </trkpt>
      <trkpt lat="43.50639" lon="6.42065">
        <ele>215.49</ele>
        <time>2017-10-16T12:53:56Z</time>
      </trkpt>
      <trkpt lat="43.50629" lon="6.42045">
        <ele>217.13</ele>
        <time>2017-10-16T12:54:03Z</time>
      </trkpt>
      <trkpt lat="43.50634" lon="6.4202">
        <ele>220.33</ele>
        <time>2017-10-16T12:54:15Z</time>
      </trkpt>
      <trkpt lat="43.50645" lon="6.41998">
        <ele>221.3</ele>
        <time>2017-10-16T12:54:27Z</time>
      </trkpt>
      <trkpt lat="43.50638" lon="6.41974">
        <ele>226.48</ele>
        <time>2017-10-16T12:54:40Z</time>
      </trkpt>
      <trkpt lat="43.50618" lon="6.41975">
        <ele>235.49</ele>
        <time>2017-10-16T12:54:55Z</time>
      </trkpt>
      <trkpt lat="43.506" lon="6.41975">
        <ele>238.29</ele>
        <time>2017-10-16T12:55:06Z</time>
      </trkpt>
      <trkpt lat="43.5058" lon="6.41975">
        <ele>237.33</ele>
        <time>2017-10-16T12:55:16Z</time>
      </trkpt>
      <trkpt lat="43.50561" lon="6.41971">
        <ele>238.33</ele>
        <time>2017-10-16T12:55:26Z</time>
      </trkpt>
      <trkpt lat="43.50552" lon="6.41949">
        <ele>240.49</ele>
        <time>2017-10-16T12:55:38Z</time>
      </trkpt>
      <trkpt lat="43.50555" lon="6.41925">
        <ele>238.53</ele>
        <time>2017-10-16T12:55:49Z</time>
      </trkpt>
      <trkpt lat="43.5057" lon="6.4191">
        <ele>243.36</ele>
        <time>2017-10-16T12:56:27Z</time>
      </trkpt>
      <trkpt lat="43.50585" lon="6.41895">
        <ele>244.13</ele>
        <time>2017-10-16T12:56:36Z</time>
      </trkpt>
      <trkpt lat="43.50598" lon="6.41879">
        <ele>246.51</ele>
        <time>2017-10-16T12:56:47Z</time>
      </trkpt>
      <trkpt lat="43.50615" lon="6.41865">
        <ele>247.49</ele>
        <time>2017-10-16T12:56:59Z</time>
      </trkpt>
      <trkpt lat="43.5063" lon="6.41849">
        <ele>247.72</ele>
        <time>2017-10-16T12:57:10Z</time>
      </trkpt>
      <trkpt lat="43.50643" lon="6.41832">
        <ele>250.52</ele>
        <time>2017-10-16T12:57:20Z</time>
      </trkpt>
      <trkpt lat="43.50658" lon="6.41817">
        <ele>251.33</ele>
        <time>2017-10-16T12:57:31Z</time>
      </trkpt>
      <trkpt lat="43.50677" lon="6.41808">
        <ele>252.58</ele>
        <time>2017-10-16T12:57:43Z</time>
      </trkpt>
      <trkpt lat="43.50693" lon="6.41796">
        <ele>254.34</ele>
        <time>2017-10-16T12:57:54Z</time>
      </trkpt>
      <trkpt lat="43.50703" lon="6.41776">
        <ele>251.3</ele>
        <time>2017-10-16T12:58:04Z</time>
      </trkpt>
      <trkpt lat="43.50717" lon="6.41756">
        <ele>252.32</ele>
        <time>2017-10-16T12:58:13Z</time>
      </trkpt>
      <trkpt lat="43.50731" lon="6.41736">
        <ele>255.13</ele>
        <time>2017-10-16T12:58:23Z</time>
      </trkpt>
      <trkpt lat="43.5074" lon="6.41714">
        <ele>255.29</ele>
        <time>2017-10-16T12:58:32Z</time>
      </trkpt>
      <trkpt lat="43.50746" lon="6.4169">
        <ele>253.33</ele>
        <time>2017-10-16T12:58:40Z</time>
      </trkpt>
      <trkpt lat="43.50751" lon="6.41664">
        <ele>252.34</ele>
        <time>2017-10-16T12:58:47Z</time>
      </trkpt>
      <trkpt lat="43.50758" lon="6.41639">
        <ele>253.34</ele>
        <time>2017-10-16T12:58:55Z</time>
      </trkpt>
      <trkpt lat="43.50769" lon="6.41614">
        <ele>253.33</ele>
        <time>2017-10-16T12:59:03Z</time>
      </trkpt>
      <trkpt lat="43.50779" lon="6.41593">
        <ele>253.3</ele>
        <time>2017-10-16T12:59:10Z</time>
      </trkpt>
      <trkpt lat="43.50791" lon="6.4157">
        <ele>253.29</ele>
        <time>2017-10-16T12:59:18Z</time>
      </trkpt>
      <trkpt lat="43.50805" lon="6.41548">
        <ele>256.53</ele>
        <time>2017-10-16T12:59:27Z</time>
      </trkpt>
      <trkpt lat="43.50809" lon="6.41521">
        <ele>255.34</ele>
        <time>2017-10-16T12:59:34Z</time>
      </trkpt>
      <trkpt lat="43.50813" lon="6.41496">
        <ele>256.33</ele>
        <time>2017-10-16T12:59:45Z</time>
      </trkpt>
      <trkpt lat="43.50826" lon="6.41476">
        <ele>260.12</ele>
        <time>2017-10-16T12:59:56Z</time>
      </trkpt>
      <trkpt lat="43.50839" lon="6.41459">
        <ele>262.29</ele>
        <time>2017-10-16T13:00:05Z</time>
      </trkpt>
      <trkpt lat="43.50852" lon="6.41436">
        <ele>261.57</ele>
        <time>2017-10-16T13:00:14Z</time>
      </trkpt>
      <trkpt lat="43.50865" lon="6.41415">
        <ele>259.18</ele>
        <time>2017-10-16T13:00:23Z</time>
      </trkpt>
      <trkpt lat="43.50874" lon="6.41392">
        <ele>260.13</ele>
        <time>2017-10-16T13:00:32Z</time>
      </trkpt>
      <trkpt lat="43.50886" lon="6.4137">
        <ele>260.53</ele>
        <time>2017-10-16T13:00:43Z</time>
      </trkpt>
      <trkpt lat="43.50899" lon="6.41351">
        <ele>264.29</ele>
        <time>2017-10-16T13:00:52Z</time>
      </trkpt>
      <trkpt lat="43.5091" lon="6.41329">
        <ele>263.52</ele>
        <time>2017-10-16T13:01:00Z</time>
      </trkpt>
      <trkpt lat="43.50926" lon="6.41312">
        <ele>267.32</ele>
        <time>2017-10-16T13:01:10Z</time>
      </trkpt>
      <trkpt lat="43.50941" lon="6.41291">
        <ele>267.49</ele>
        <time>2017-10-16T13:01:19Z</time>
      </trkpt>
      <trkpt lat="43.50955" lon="6.41275">
        <ele>269.17</ele>
        <time>2017-10-16T13:01:27Z</time>
      </trkpt>
      <trkpt lat="43.5097" lon="6.41259">
        <ele>268.34</ele>
        <time>2017-10-16T13:01:35Z</time>
      </trkpt>
      <trkpt lat="43.50988" lon="6.41251">
        <ele>269.53</ele>
        <time>2017-10-16T13:01:43Z</time>
      </trkpt>
      <trkpt lat="43.51007" lon="6.41242">
        <ele>267.18</ele>
        <time>2017-10-16T13:01:49Z</time>
      </trkpt>
      <trkpt lat="43.51023" lon="6.41227">
        <ele>266.34</ele>
        <time>2017-10-16T13:01:54Z</time>
      </trkpt>
      <trkpt lat="43.51039" lon="6.41216">
        <ele>265.53</ele>
        <time>2017-10-16T13:01:58Z</time>
      </trkpt>
      <trkpt lat="43.5106" lon="6.41204">
        <ele>262.54</ele>
        <time>2017-10-16T13:02:03Z</time>
      </trkpt>
      <trkpt lat="43.51078" lon="6.41196">
        <ele>264.33</ele>
        <time>2017-10-16T13:02:08Z</time>
      </trkpt>
      <trkpt lat="43.51091" lon="6.41174">
        <ele>264.17</ele>
        <time>2017-10-16T13:02:13Z</time>
      </trkpt>
      <trkpt lat="43.51109" lon="6.41158">
        <ele>261.54</ele>
        <time>2017-10-16T13:02:19Z</time>
      </trkpt>
      <trkpt lat="43.51122" lon="6.41141">
        <ele>258.58</ele>
        <time>2017-10-16T13:02:25Z</time>
      </trkpt>
      <trkpt lat="43.51135" lon="6.41121">
        <ele>256.34</ele>
        <time>2017-10-16T13:02:34Z</time>
      </trkpt>
      <trkpt lat="43.51154" lon="6.41133">
        <ele>256.33</ele>
        <time>2017-10-16T13:02:40Z</time>
      </trkpt>
      <trkpt lat="43.51172" lon="6.41137">
        <ele>254.34</ele>
        <time>2017-10-16T13:02:47Z</time>
      </trkpt>
      <trkpt lat="43.51191" lon="6.41133">
        <ele>254.33</ele>
        <time>2017-10-16T13:02:54Z</time>
      </trkpt>
      <trkpt lat="43.5121" lon="6.41127">
        <ele>257.29</ele>
        <time>2017-10-16T13:03:02Z</time>
      </trkpt>
      <trkpt lat="43.51229" lon="6.41122">
        <ele>260.1</ele>
        <time>2017-10-16T13:03:10Z</time>
      </trkpt>
      <trkpt lat="43.51248" lon="6.41112">
        <ele>265.44</ele>
        <time>2017-10-16T13:03:17Z</time>
      </trkpt>
      <trkpt lat="43.51267" lon="6.41102">
        <ele>263.13</ele>
        <time>2017-10-16T13:03:24Z</time>
      </trkpt>
      <trkpt lat="43.51284" lon="6.41092">
        <ele>261.57</ele>
        <time>2017-10-16T13:03:31Z</time>
      </trkpt>
      <trkpt lat="43.51303" lon="6.41082">
        <ele>258.54</ele>
        <time>2017-10-16T13:03:38Z</time>
      </trkpt>
      <trkpt lat="43.51323" lon="6.41087">
        <ele>260.33</ele>
        <time>2017-10-16T13:03:47Z</time>
      </trkpt>
      <trkpt lat="43.5134" lon="6.41077">
        <ele>258.33</ele>
        <time>2017-10-16T13:04:35Z</time>
      </trkpt>
      <trkpt lat="43.51358" lon="6.41085">
        <ele>256.33</ele>
        <time>2017-10-16T13:04:50Z</time>
      </trkpt>
      <trkpt lat="43.51374" lon="6.41102">
        <ele>256.53</ele>
        <time>2017-10-16T13:05:27Z</time>
      </trkpt>
      <trkpt lat="43.51391" lon="6.41117">
        <ele>255.33</ele>
        <time>2017-10-16T13:05:34Z</time>
      </trkpt>
      <trkpt lat="43.51407" lon="6.41135">
        <ele>253.37</ele>
        <time>2017-10-16T13:05:40Z</time>
      </trkpt>
      <trkpt lat="43.5142" lon="6.41154">
        <ele>251.37</ele>
        <time>2017-10-16T13:05:46Z</time>
      </trkpt>
      <trkpt lat="43.51438" lon="6.41169">
        <ele>250.34</ele>
        <time>2017-10-16T13:05:51Z</time>
      </trkpt>
      <trkpt lat="43.51454" lon="6.41187">
        <ele>248.37</ele>
        <time>2017-10-16T13:05:57Z</time>
      </trkpt>
      <trkpt lat="43.51467" lon="6.41208">
        <ele>247.33</ele>
        <time>2017-10-16T13:06:11Z</time>
      </trkpt>
      <trkpt lat="43.51485" lon="6.41209">
        <ele>247.13</ele>
        <time>2017-10-16T13:06:19Z</time>
      </trkpt>
      <trkpt lat="43.51504" lon="6.41203">
        <ele>246.73</ele>
        <time>2017-10-16T13:06:29Z</time>
      </trkpt>
      <trkpt lat="43.51513" lon="6.41177">
        <ele>245.49</ele>
        <time>2017-10-16T13:06:36Z</time>
      </trkpt>
      <trkpt lat="43.51528" lon="6.4116">
        <ele>248.52</ele>
        <time>2017-10-16T13:06:43Z</time>
      </trkpt>
      <trkpt lat="43.5154" lon="6.4114">
        <ele>245.95</ele>
        <time>2017-10-16T13:06:49Z</time>
      </trkpt>
      <trkpt lat="43.51554" lon="6.41122">
        <ele>246.29</ele>
        <time>2017-10-16T13:06:54Z</time>
      </trkpt>
      <trkpt lat="43.51567" lon="6.41104">
        <ele>248.29</ele>
        <time>2017-10-16T13:06:59Z</time>
      </trkpt>
      <trkpt lat="43.51583" lon="6.41088">
        <ele>246.09</ele>
        <time>2017-10-16T13:07:10Z</time>
      </trkpt>
      <trkpt lat="43.51598" lon="6.41072">
        <ele>247.13</ele>
        <time>2017-10-16T13:07:18Z</time>
      </trkpt>
      <trkpt lat="43.51612" lon="6.41055">
        <ele>243.38</ele>
        <time>2017-10-16T13:07:25Z</time>
      </trkpt>
      <trkpt lat="43.51628" lon="6.41042">
        <ele>248.29</ele>
        <time>2017-10-16T13:07:31Z</time>
      </trkpt>
      <trkpt lat="43.51647" lon="6.41031">
        <ele>247.1</ele>
        <time>2017-10-16T13:07:37Z</time>
      </trkpt>
      <trkpt lat="43.51664" lon="6.41022">
        <ele>247.13</ele>
        <time>2017-10-16T13:07:43Z</time>
      </trkpt>
      <trkpt lat="43.51681" lon="6.4101">
        <ele>249.7</ele>
        <time>2017-10-16T13:07:51Z</time>
      </trkpt>
      <trkpt lat="43.51698" lon="6.40999">
        <ele>243.3</ele>
        <time>2017-10-16T13:08:30Z</time>
      </trkpt>
      <trkpt lat="43.51712" lon="6.40977">
        <ele>246.01</ele>
        <time>2017-10-16T13:08:39Z</time>
      </trkpt>
      <trkpt lat="43.51728" lon="6.40963">
        <ele>244.53</ele>
        <time>2017-10-16T13:08:46Z</time>
      </trkpt>
      <trkpt lat="43.51743" lon="6.40949">
        <ele>245.5</ele>
        <time>2017-10-16T13:08:54Z</time>
      </trkpt>
      <trkpt lat="43.51757" lon="6.40929">
        <ele>250.48</ele>
        <time>2017-10-16T13:09:03Z</time>
      </trkpt>
      <trkpt lat="43.51772" lon="6.40914">
        <ele>245.55</ele>
        <time>2017-10-16T13:09:09Z</time>
      </trkpt>
      <trkpt lat="43.51788" lon="6.40903">
        <ele>243.14</ele>
        <time>2017-10-16T13:09:16Z</time>
      </trkpt>
      <trkpt lat="43.51807" lon="6.409">
        <ele>237.5</ele>
        <time>2017-10-16T13:09:24Z</time>
      </trkpt>
      <trkpt lat="43.51826" lon="6.40897">
        <ele>237.06</ele>
        <time>2017-10-16T13:09:30Z</time>
      </trkpt>
      <trkpt lat="43.51844" lon="6.40888">
        <ele>234.4</ele>
        <time>2017-10-16T13:09:36Z</time>
      </trkpt>
      <trkpt lat="43.51864" lon="6.40886">
        <ele>234.21</ele>
        <time>2017-10-16T13:09:42Z</time>
      </trkpt>
      <trkpt lat="43.51885" lon="6.4089">
        <ele>230.7</ele>
        <time>2017-10-16T13:09:49Z</time>
      </trkpt>
      <trkpt lat="43.51904" lon="6.40894">
        <ele>229.33</ele>
        <time>2017-10-16T13:09:57Z</time>
      </trkpt>
      <trkpt lat="43.51922" lon="6.40887">
        <ele>227.17</ele>
        <time>2017-10-16T13:10:08Z</time>
      </trkpt>
      <trkpt lat="43.5194" lon="6.4088">
        <ele>224.33</ele>
        <time>2017-10-16T13:10:18Z</time>
      </trkpt>
      <trkpt lat="43.51959" lon="6.4088">
        <ele>222.39</ele>
        <time>2017-10-16T13:10:37Z</time>
      </trkpt>
      <trkpt lat="43.51977" lon="6.40889">
        <ele>218.33</ele>
        <time>2017-10-16T13:10:56Z</time>
      </trkpt>
      <trkpt lat="43.51994" lon="6.40901">
        <ele>217.53</ele>
        <time>2017-10-16T13:11:04Z</time>
      </trkpt>
      <trkpt lat="43.52013" lon="6.40911">
        <ele>217.33</ele>
        <time>2017-10-16T13:11:13Z</time>
      </trkpt>
      <trkpt lat="43.52031" lon="6.40923">
        <ele>216.34</ele>
        <time>2017-10-16T13:11:21Z</time>
      </trkpt>
      <trkpt lat="43.5204" lon="6.40947">
        <ele>215.5</ele>
        <time>2017-10-16T13:11:26Z</time>
      </trkpt>
      <trkpt lat="43.52046" lon="6.40971">
        <ele>212.54</ele>
        <time>2017-10-16T13:11:32Z</time>
      </trkpt>
      <trkpt lat="43.52051" lon="6.41">
        <ele>210.38</ele>
        <time>2017-10-16T13:11:38Z</time>
      </trkpt>
      <trkpt lat="43.52069" lon="6.41003">
        <ele>215.33</ele>
        <time>2017-10-16T13:11:49Z</time>
      </trkpt>
      <trkpt lat="43.52083" lon="6.40983">
        <ele>215.57</ele>
        <time>2017-10-16T13:11:57Z</time>
      </trkpt>
      <trkpt lat="43.521" lon="6.40973">
        <ele>215.14</ele>
        <time>2017-10-16T13:12:03Z</time>
      </trkpt>
      <trkpt lat="43.52122" lon="6.40964">
        <ele>217.49</ele>
        <time>2017-10-16T13:12:10Z</time>
      </trkpt>
      <trkpt lat="43.5214" lon="6.40961">
        <ele>217.33</ele>
        <time>2017-10-16T13:12:16Z</time>
      </trkpt>
      <trkpt lat="43.52159" lon="6.40961">
        <ele>216.34</ele>
        <time>2017-10-16T13:12:25Z</time>
      </trkpt>
      <trkpt lat="43.52175" lon="6.40951">
        <ele>204.25</ele>
        <time>2017-10-16T13:13:14Z</time>
      </trkpt>
      <trkpt lat="43.5219" lon="6.40935">
        <ele>202.53</ele>
        <time>2017-10-16T13:13:46Z</time>
      </trkpt>
      <trkpt lat="43.52205" lon="6.40919">
        <ele>205.33</ele>
        <time>2017-10-16T13:14:03Z</time>
      </trkpt>
      <trkpt lat="43.52221" lon="6.40905">
        <ele>209.33</ele>
        <time>2017-10-16T13:14:16Z</time>
      </trkpt>
      <trkpt lat="43.52235" lon="6.40888">
        <ele>210.33</ele>
        <time>2017-10-16T13:14:28Z</time>
      </trkpt>
      <trkpt lat="43.52248" lon="6.40869">
        <ele>213.49</ele>
        <time>2017-10-16T13:14:42Z</time>
      </trkpt>
      <trkpt lat="43.52265" lon="6.40859">
        <ele>214.29</ele>
        <time>2017-10-16T13:14:52Z</time>
      </trkpt>
      <trkpt lat="43.52281" lon="6.40849">
        <ele>214.49</ele>
        <time>2017-10-16T13:15:01Z</time>
      </trkpt>
      <trkpt lat="43.52299" lon="6.40838">
        <ele>214.33</ele>
        <time>2017-10-16T13:15:11Z</time>
      </trkpt>
      <trkpt lat="43.52316" lon="6.40828">
        <ele>215.3</ele>
        <time>2017-10-16T13:15:21Z</time>
      </trkpt>
      <trkpt lat="43.52333" lon="6.40817">
        <ele>217.32</ele>
        <time>2017-10-16T13:15:32Z</time>
      </trkpt>
      <trkpt lat="43.5235" lon="6.40808">
        <ele>218.52</ele>
        <time>2017-10-16T13:15:43Z</time>
      </trkpt>
      <trkpt lat="43.52368" lon="6.408">
        <ele>223.12</ele>
        <time>2017-10-16T13:15:55Z</time>
      </trkpt>
      <trkpt lat="43.52384" lon="6.40788">
        <ele>224.3</ele>
        <time>2017-10-16T13:16:09Z</time>
      </trkpt>
      <trkpt lat="43.52395" lon="6.40767">
        <ele>225.29</ele>
        <time>2017-10-16T13:16:20Z</time>
      </trkpt>
      <trkpt lat="43.52402" lon="6.40743">
        <ele>227.34</ele>
        <time>2017-10-16T13:16:34Z</time>
      </trkpt>
      <trkpt lat="43.52384" lon="6.40747">
        <ele>225.3</ele>
        <time>2017-10-16T13:16:47Z</time>
      </trkpt>
      <trkpt lat="43.52365" lon="6.40758">
        <ele>226.33</ele>
        <time>2017-10-16T13:16:54Z</time>
      </trkpt>
      <trkpt lat="43.52347" lon="6.40768">
        <ele>226.33</ele>
        <time>2017-10-16T13:17:00Z</time>
      </trkpt>
      <trkpt lat="43.52326" lon="6.40775">
        <ele>228.33</ele>
        <time>2017-10-16T13:17:06Z</time>
      </trkpt>
      <trkpt lat="43.52308" lon="6.40782">
        <ele>228.29</ele>
        <time>2017-10-16T13:17:11Z</time>
      </trkpt>
      <trkpt lat="43.52289" lon="6.40791">
        <ele>230.33</ele>
        <time>2017-10-16T13:17:16Z</time>
      </trkpt>
      <trkpt lat="43.52268" lon="6.408">
        <ele>229.53</ele>
        <time>2017-10-16T13:17:21Z</time>
      </trkpt>
      <trkpt lat="43.52247" lon="6.4081">
        <ele>229.33</ele>
        <time>2017-10-16T13:17:26Z</time>
      </trkpt>
      <trkpt lat="43.52227" lon="6.4082">
        <ele>228.34</ele>
        <time>2017-10-16T13:17:31Z</time>
      </trkpt>
      <trkpt lat="43.5221" lon="6.40827">
        <ele>230.13</ele>
        <time>2017-10-16T13:17:35Z</time>
      </trkpt>
      <trkpt lat="43.52188" lon="6.40835">
        <ele>230.29</ele>
        <time>2017-10-16T13:17:40Z</time>
      </trkpt>
      <trkpt lat="43.52169" lon="6.40836">
        <ele>230.34</ele>
        <time>2017-10-16T13:17:44Z</time>
      </trkpt>
      <trkpt lat="43.5215" lon="6.40836">
        <ele>231.33</ele>
        <time>2017-10-16T13:17:48Z</time>
      </trkpt>
      <trkpt lat="43.52132" lon="6.40832">
        <ele>230.34</ele>
        <time>2017-10-16T13:17:52Z</time>
      </trkpt>
      <trkpt lat="43.52114" lon="6.40824">
        <ele>229.34</ele>
        <time>2017-10-16T13:17:56Z</time>
      </trkpt>
      <trkpt lat="43.52097" lon="6.40813">
        <ele>229.37</ele>
        <time>2017-10-16T13:18:00Z</time>
      </trkpt>
      <trkpt lat="43.52081" lon="6.40801">
        <ele>228.34</ele>
        <time>2017-10-16T13:18:04Z</time>
      </trkpt>
      <trkpt lat="43.52065" lon="6.40787">
        <ele>228.33</ele>
        <time>2017-10-16T13:18:08Z</time>
      </trkpt>
      <trkpt lat="43.52049" lon="6.40773">
        <ele>228.33</ele>
        <time>2017-10-16T13:18:12Z</time>
      </trkpt>
      <trkpt lat="43.52032" lon="6.4076">
        <ele>227.5</ele>
        <time>2017-10-16T13:18:16Z</time>
      </trkpt>
      <trkpt lat="43.52015" lon="6.40748">
        <ele>227.17</ele>
        <time>2017-10-16T13:18:20Z</time>
      </trkpt>
      <trkpt lat="43.52" lon="6.40733">
        <ele>226.37</ele>
        <time>2017-10-16T13:18:24Z</time>
      </trkpt>
      <trkpt lat="43.51983" lon="6.40721">
        <ele>227.33</ele>
        <time>2017-10-16T13:18:28Z</time>
      </trkpt>
      <trkpt lat="43.51966" lon="6.40708">
        <ele>227.33</ele>
        <time>2017-10-16T13:18:32Z</time>
      </trkpt>
      <trkpt lat="43.51948" lon="6.407">
        <ele>227.49</ele>
        <time>2017-10-16T13:18:36Z</time>
      </trkpt>
      <trkpt lat="43.5193" lon="6.40694">
        <ele>227.33</ele>
        <time>2017-10-16T13:18:40Z</time>
      </trkpt>
      <trkpt lat="43.51911" lon="6.4069">
        <ele>227.33</ele>
        <time>2017-10-16T13:18:44Z</time>
      </trkpt>
      <trkpt lat="43.51889" lon="6.40687">
        <ele>227.33</ele>
        <time>2017-10-16T13:18:49Z</time>
      </trkpt>
      <trkpt lat="43.5187" lon="6.40685">
        <ele>227.33</ele>
        <time>2017-10-16T13:18:53Z</time>
      </trkpt>
      <trkpt lat="43.51848" lon="6.40683">
        <ele>227.52</ele>
        <time>2017-10-16T13:18:58Z</time>
      </trkpt>
      <trkpt lat="43.51829" lon="6.40682">
        <ele>228.33</ele>
        <time>2017-10-16T13:19:02Z</time>
      </trkpt>
      <trkpt lat="43.51808" lon="6.4068">
        <ele>227.34</ele>
        <time>2017-10-16T13:19:07Z</time>
      </trkpt>
      <trkpt lat="43.5179" lon="6.4068">
        <ele>228.33</ele>
        <time>2017-10-16T13:19:11Z</time>
      </trkpt>
      <trkpt lat="43.51769" lon="6.40677">
        <ele>227.37</ele>
        <time>2017-10-16T13:19:15Z</time>
      </trkpt>
      <trkpt lat="43.5175" lon="6.40676">
        <ele>228.29</ele>
        <time>2017-10-16T13:19:20Z</time>
      </trkpt>
      <trkpt lat="43.51731" lon="6.40676">
        <ele>230.13</ele>
        <time>2017-10-16T13:19:25Z</time>
      </trkpt>
      <trkpt lat="43.51711" lon="6.40673">
        <ele>228.53</ele>
        <time>2017-10-16T13:19:29Z</time>
      </trkpt>
      <trkpt lat="43.51689" lon="6.40669">
        <ele>229.29</ele>
        <time>2017-10-16T13:19:34Z</time>
      </trkpt>
      <trkpt lat="43.51669" lon="6.40664">
        <ele>230.36</ele>
        <time>2017-10-16T13:19:39Z</time>
      </trkpt>
      <trkpt lat="43.51649" lon="6.40654">
        <ele>228.38</ele>
        <time>2017-10-16T13:19:44Z</time>
      </trkpt>
      <trkpt lat="43.51629" lon="6.40647">
        <ele>228.33</ele>
        <time>2017-10-16T13:19:51Z</time>
      </trkpt>
      <trkpt lat="43.51601" lon="6.40611">
        <ele>224.33</ele>
        <time>2017-10-16T13:19:59Z</time>
      </trkpt>
      <trkpt lat="43.51591" lon="6.40583">
        <ele>221.42</ele>
        <time>2017-10-16T13:20:02Z</time>
      </trkpt>
      <trkpt lat="43.51582" lon="6.40558">
        <ele>222.17</ele>
        <time>2017-10-16T13:20:06Z</time>
      </trkpt>
      <trkpt lat="43.51577" lon="6.40528">
        <ele>221.34</ele>
        <time>2017-10-16T13:20:11Z</time>
      </trkpt>
      <trkpt lat="43.51573" lon="6.40502">
        <ele>221.33</ele>
        <time>2017-10-16T13:20:15Z</time>
      </trkpt>
      <trkpt lat="43.51572" lon="6.40478">
        <ele>218.74</ele>
        <time>2017-10-16T13:20:19Z</time>
      </trkpt>
      <trkpt lat="43.51569" lon="6.40452">
        <ele>218.5</ele>
        <time>2017-10-16T13:20:23Z</time>
      </trkpt>
      <trkpt lat="43.51563" lon="6.40425">
        <ele>220.29</ele>
        <time>2017-10-16T13:20:27Z</time>
      </trkpt>
      <trkpt lat="43.51555" lon="6.404">
        <ele>222.28</ele>
        <time>2017-10-16T13:20:31Z</time>
      </trkpt>
      <trkpt lat="43.51544" lon="6.40373">
        <ele>222.37</ele>
        <time>2017-10-16T13:20:35Z</time>
      </trkpt>
      <trkpt lat="43.51536" lon="6.40349">
        <ele>224.45</ele>
        <time>2017-10-16T13:20:39Z</time>
      </trkpt>
      <trkpt lat="43.51527" lon="6.40325">
        <ele>223.34</ele>
        <time>2017-10-16T13:20:43Z</time>
      </trkpt>
      <trkpt lat="43.51519" lon="6.40296">
        <ele>224.34</ele>
        <time>2017-10-16T13:20:48Z</time>
      </trkpt>
      <trkpt lat="43.51514" lon="6.4027">
        <ele>224.33</ele>
        <time>2017-10-16T13:20:52Z</time>
      </trkpt>
      <trkpt lat="43.51518" lon="6.40243">
        <ele>224.33</ele>
        <time>2017-10-16T13:20:57Z</time>
      </trkpt>
      <trkpt lat="43.51525" lon="6.40215">
        <ele>224.33</ele>
        <time>2017-10-16T13:21:03Z</time>
      </trkpt>
      <trkpt lat="43.51532" lon="6.40115">
        <ele>232.33</ele>
        <time>2017-10-16T13:21:26Z</time>
      </trkpt>
      <trkpt lat="43.51548" lon="6.401">
        <ele>237.07</ele>
        <time>2017-10-16T13:21:29Z</time>
      </trkpt>
      <trkpt lat="43.51563" lon="6.40083">
        <ele>239.9</ele>
        <time>2017-10-16T13:21:34Z</time>
      </trkpt>
      <trkpt lat="43.51576" lon="6.40065">
        <ele>240.45</ele>
        <time>2017-10-16T13:21:39Z</time>
      </trkpt>
      <trkpt lat="43.51587" lon="6.40044">
        <ele>235.54</ele>
        <time>2017-10-16T13:21:43Z</time>
      </trkpt>
      <trkpt lat="43.51599" lon="6.40025">
        <ele>232.13</ele>
        <time>2017-10-16T13:21:47Z</time>
      </trkpt>
      <trkpt lat="43.51608" lon="6.4">
        <ele>228.06</ele>
        <time>2017-10-16T13:21:51Z</time>
      </trkpt>
      <trkpt lat="43.51613" lon="6.39974">
        <ele>225.57</ele>
        <time>2017-10-16T13:21:55Z</time>
      </trkpt>
      <trkpt lat="43.51615" lon="6.39946">
        <ele>224.33</ele>
        <time>2017-10-16T13:21:59Z</time>
      </trkpt>
      <trkpt lat="43.51616" lon="6.3992">
        <ele>224.33</ele>
        <time>2017-10-16T13:22:03Z</time>
      </trkpt>
      <trkpt lat="43.51612" lon="6.39895">
        <ele>223.34</ele>
        <time>2017-10-16T13:22:07Z</time>
      </trkpt>
      <trkpt lat="43.51604" lon="6.39867">
        <ele>223.34</ele>
        <time>2017-10-16T13:22:12Z</time>
      </trkpt>
      <trkpt lat="43.51597" lon="6.39841">
        <ele>224.17</ele>
        <time>2017-10-16T13:22:17Z</time>
      </trkpt>
      <trkpt lat="43.51589" lon="6.39818">
        <ele>223.17</ele>
        <time>2017-10-16T13:22:21Z</time>
      </trkpt>
      <trkpt lat="43.51582" lon="6.39791">
        <ele>221.5</ele>
        <time>2017-10-16T13:22:26Z</time>
      </trkpt>
      <trkpt lat="43.51573" lon="6.39763">
        <ele>221.33</ele>
        <time>2017-10-16T13:22:31Z</time>
      </trkpt>
      <trkpt lat="43.51565" lon="6.3974">
        <ele>220.33</ele>
        <time>2017-10-16T13:22:35Z</time>
      </trkpt>
      <trkpt lat="43.51555" lon="6.39717">
        <ele>220.33</ele>
        <time>2017-10-16T13:22:42Z</time>
      </trkpt>
      <trkpt lat="43.51585" lon="6.39573">
        <ele>221.93</ele>
        <time>2017-10-16T13:23:05Z</time>
      </trkpt>
      <trkpt lat="43.51596" lon="6.39547">
        <ele>218.16</ele>
        <time>2017-10-16T13:23:09Z</time>
      </trkpt>
      <trkpt lat="43.51609" lon="6.3952">
        <ele>218.53</ele>
        <time>2017-10-16T13:23:13Z</time>
      </trkpt>
      <trkpt lat="43.51624" lon="6.39495">
        <ele>219.17</ele>
        <time>2017-10-16T13:23:17Z</time>
      </trkpt>
      <trkpt lat="43.51641" lon="6.39472">
        <ele>220.52</ele>
        <time>2017-10-16T13:23:21Z</time>
      </trkpt>
      <trkpt lat="43.51655" lon="6.39455">
        <ele>219.5</ele>
        <time>2017-10-16T13:23:24Z</time>
      </trkpt>
      <trkpt lat="43.51673" lon="6.39434">
        <ele>222.31</ele>
        <time>2017-10-16T13:23:28Z</time>
      </trkpt>
      <trkpt lat="43.51688" lon="6.39417">
        <ele>222.3</ele>
        <time>2017-10-16T13:23:31Z</time>
      </trkpt>
      <trkpt lat="43.51702" lon="6.39398">
        <ele>223.13</ele>
        <time>2017-10-16T13:23:34Z</time>
      </trkpt>
      <trkpt lat="43.51714" lon="6.39375">
        <ele>222.37</ele>
        <time>2017-10-16T13:23:37Z</time>
      </trkpt>
      <trkpt lat="43.51725" lon="6.39347">
        <ele>219.45</ele>
        <time>2017-10-16T13:23:40Z</time>
      </trkpt>
      <trkpt lat="43.51733" lon="6.39322">
        <ele>215.49</ele>
        <time>2017-10-16T13:23:43Z</time>
      </trkpt>
      <trkpt lat="43.51738" lon="6.39292">
        <ele>214.34</ele>
        <time>2017-10-16T13:23:46Z</time>
      </trkpt>
      <trkpt lat="43.5174" lon="6.39266">
        <ele>211.55</ele>
        <time>2017-10-16T13:23:49Z</time>
      </trkpt>
      <trkpt lat="43.51737" lon="6.39238">
        <ele>209.57</ele>
        <time>2017-10-16T13:23:52Z</time>
      </trkpt>
      <trkpt lat="43.51733" lon="6.3921">
        <ele>209.37</ele>
        <time>2017-10-16T13:23:55Z</time>
      </trkpt>
      <trkpt lat="43.51724" lon="6.39184">
        <ele>208.53</ele>
        <time>2017-10-16T13:23:58Z</time>
      </trkpt>
      <trkpt lat="43.51712" lon="6.39159">
        <ele>208.33</ele>
        <time>2017-10-16T13:24:02Z</time>
      </trkpt>
      <trkpt lat="43.51698" lon="6.39136">
        <ele>207.53</ele>
        <time>2017-10-16T13:24:05Z</time>
      </trkpt>
      <trkpt lat="43.51683" lon="6.39119">
        <ele>207.33</ele>
        <time>2017-10-16T13:24:08Z</time>
      </trkpt>
      <trkpt lat="43.51665" lon="6.39105">
        <ele>208.13</ele>
        <time>2017-10-16T13:24:11Z</time>
      </trkpt>
      <trkpt lat="43.51647" lon="6.39094">
        <ele>209.13</ele>
        <time>2017-10-16T13:24:14Z</time>
      </trkpt>
      <trkpt lat="43.51627" lon="6.39086">
        <ele>208.21</ele>
        <time>2017-10-16T13:24:17Z</time>
      </trkpt>
      <trkpt lat="43.51607" lon="6.39079">
        <ele>208.17</ele>
        <time>2017-10-16T13:24:20Z</time>
      </trkpt>
      <trkpt lat="43.51589" lon="6.39074">
        <ele>205.58</ele>
        <time>2017-10-16T13:24:23Z</time>
      </trkpt>
      <trkpt lat="43.5157" lon="6.39068">
        <ele>205.14</ele>
        <time>2017-10-16T13:24:26Z</time>
      </trkpt>
      <trkpt lat="43.51552" lon="6.39062">
        <ele>205.33</ele>
        <time>2017-10-16T13:24:29Z</time>
      </trkpt>
      <trkpt lat="43.51534" lon="6.39058">
        <ele>204.53</ele>
        <time>2017-10-16T13:24:32Z</time>
      </trkpt>
      <trkpt lat="43.51513" lon="6.39052">
        <ele>203.21</ele>
        <time>2017-10-16T13:24:35Z</time>
      </trkpt>
      <trkpt lat="43.51493" lon="6.39041">
        <ele>203.17</ele>
        <time>2017-10-16T13:24:38Z</time>
      </trkpt>
      <trkpt lat="43.51475" lon="6.39028">
        <ele>202.37</ele>
        <time>2017-10-16T13:24:41Z</time>
      </trkpt>
      <trkpt lat="43.51461" lon="6.39012">
        <ele>201.5</ele>
        <time>2017-10-16T13:24:44Z</time>
      </trkpt>
      <trkpt lat="43.51446" lon="6.38994">
        <ele>201.17</ele>
        <time>2017-10-16T13:24:47Z</time>
      </trkpt>
      <trkpt lat="43.51433" lon="6.38971">
        <ele>202.1</ele>
        <time>2017-10-16T13:24:51Z</time>
      </trkpt>
      <trkpt lat="43.51421" lon="6.3895">
        <ele>201.34</ele>
        <time>2017-10-16T13:24:55Z</time>
      </trkpt>
      <trkpt lat="43.51412" lon="6.38926">
        <ele>204.29</ele>
        <time>2017-10-16T13:25:01Z</time>
      </trkpt>
      <trkpt lat="43.51393" lon="6.3892">
        <ele>199.37</ele>
        <time>2017-10-16T13:27:20Z</time>
      </trkpt>
      <trkpt lat="43.51373" lon="6.38922">
        <ele>198.33</ele>
        <time>2017-10-16T13:27:48Z</time>
      </trkpt>
      <trkpt lat="43.51354" lon="6.3893">
        <ele>195.58</ele>
        <time>2017-10-16T13:27:53Z</time>
      </trkpt>
      <trkpt lat="43.51332" lon="6.38935">
        <ele>197.32</ele>
        <time>2017-10-16T13:27:57Z</time>
      </trkpt>
      <trkpt lat="43.51312" lon="6.38944">
        <ele>196.37</ele>
        <time>2017-10-16T13:28:00Z</time>
      </trkpt>
      <trkpt lat="43.51291" lon="6.38953">
        <ele>195.34</ele>
        <time>2017-10-16T13:28:03Z</time>
      </trkpt>
      <trkpt lat="43.51269" lon="6.38961">
        <ele>193.57</ele>
        <time>2017-10-16T13:28:06Z</time>
      </trkpt>
      <trkpt lat="43.51246" lon="6.38969">
        <ele>191.54</ele>
        <time>2017-10-16T13:28:09Z</time>
      </trkpt>
      <trkpt lat="43.51227" lon="6.38975">
        <ele>188.55</ele>
        <time>2017-10-16T13:28:12Z</time>
      </trkpt>
      <trkpt lat="43.51208" lon="6.38983">
        <ele>187.34</ele>
        <time>2017-10-16T13:28:15Z</time>
      </trkpt>
      <trkpt lat="43.51189" lon="6.3899">
        <ele>185.38</ele>
        <time>2017-10-16T13:28:18Z</time>
      </trkpt>
      <trkpt lat="43.51169" lon="6.38997">
        <ele>182.74</ele>
        <time>2017-10-16T13:28:21Z</time>
      </trkpt>
      <trkpt lat="43.51148" lon="6.39005">
        <ele>181.34</ele>
        <time>2017-10-16T13:28:24Z</time>
      </trkpt>
      <trkpt lat="43.51126" lon="6.3901">
        <ele>181.3</ele>
        <time>2017-10-16T13:28:27Z</time>
      </trkpt>
      <trkpt lat="43.51104" lon="6.39022">
        <ele>180.5</ele>
        <time>2017-10-16T13:28:30Z</time>
      </trkpt>
      <trkpt lat="43.51081" lon="6.39029">
        <ele>179.53</ele>
        <time>2017-10-16T13:28:33Z</time>
      </trkpt>
      <trkpt lat="43.51058" lon="6.39036">
        <ele>180.13</ele>
        <time>2017-10-16T13:28:36Z</time>
      </trkpt>
      <trkpt lat="43.51037" lon="6.39046">
        <ele>179.34</ele>
        <time>2017-10-16T13:28:39Z</time>
      </trkpt>
      <trkpt lat="43.51016" lon="6.39053">
        <ele>178.5</ele>
        <time>2017-10-16T13:28:42Z</time>
      </trkpt>
      <trkpt lat="43.50995" lon="6.39057">
        <ele>178.3</ele>
        <time>2017-10-16T13:28:45Z</time>
      </trkpt>
      <trkpt lat="43.50975" lon="6.39054">
        <ele>180.09</ele>
        <time>2017-10-16T13:28:48Z</time>
      </trkpt>
      <trkpt lat="43.50956" lon="6.39049">
        <ele>181.1</ele>
        <time>2017-10-16T13:28:51Z</time>
      </trkpt>
      <trkpt lat="43.50934" lon="6.39045">
        <ele>182.13</ele>
        <time>2017-10-16T13:28:55Z</time>
      </trkpt>
      <trkpt lat="43.50916" lon="6.3904">
        <ele>185.09</ele>
        <time>2017-10-16T13:28:59Z</time>
      </trkpt>
      <trkpt lat="43.50897" lon="6.39034">
        <ele>187.44</ele>
        <time>2017-10-16T13:29:03Z</time>
      </trkpt>
      <trkpt lat="43.50878" lon="6.39033">
        <ele>185.45</ele>
        <time>2017-10-16T13:29:07Z</time>
      </trkpt>
      <trkpt lat="43.50857" lon="6.39031">
        <ele>182.38</ele>
        <time>2017-10-16T13:29:11Z</time>
      </trkpt>
      <trkpt lat="43.50839" lon="6.39016">
        <ele>181.37</ele>
        <time>2017-10-16T13:29:16Z</time>
      </trkpt>
      <trkpt lat="43.50821" lon="6.38998">
        <ele>182.33</ele>
        <time>2017-10-16T13:29:20Z</time>
      </trkpt>
      <trkpt lat="43.50804" lon="6.38984">
        <ele>180.57</ele>
        <time>2017-10-16T13:29:24Z</time>
      </trkpt>
      <trkpt lat="43.50788" lon="6.38967">
        <ele>180.94</ele>
        <time>2017-10-16T13:29:29Z</time>
      </trkpt>
      <trkpt lat="43.50776" lon="6.38942">
        <ele>179.53</ele>
        <time>2017-10-16T13:29:34Z</time>
      </trkpt>
      <trkpt lat="43.50772" lon="6.38917">
        <ele>174.63</ele>
        <time>2017-10-16T13:29:37Z</time>
      </trkpt>
      <trkpt lat="43.50769" lon="6.38885">
        <ele>172.35</ele>
        <time>2017-10-16T13:29:41Z</time>
      </trkpt>
      <trkpt lat="43.50755" lon="6.38861">
        <ele>171.29</ele>
        <time>2017-10-16T13:29:46Z</time>
      </trkpt>
      <trkpt lat="43.5074" lon="6.38875">
        <ele>168.54</ele>
        <time>2017-10-16T13:29:50Z</time>
      </trkpt>
      <trkpt lat="43.50737" lon="6.38901">
        <ele>168.53</ele>
        <time>2017-10-16T13:29:55Z</time>
      </trkpt>
      <trkpt lat="43.5073" lon="6.38925">
        <ele>169.29</ele>
        <time>2017-10-16T13:29:59Z</time>
      </trkpt>
      <trkpt lat="43.50723" lon="6.3895">
        <ele>170.33</ele>
        <time>2017-10-16T13:30:03Z</time>
      </trkpt>
      <trkpt lat="43.50714" lon="6.38976">
        <ele>172.09</ele>
        <time>2017-10-16T13:30:08Z</time>
      </trkpt>
      <trkpt lat="43.50697" lon="6.38989">
        <ele>171.17</ele>
        <time>2017-10-16T13:30:15Z</time>
      </trkpt>
      <trkpt lat="43.50679" lon="6.38992">
        <ele>169.29</ele>
        <time>2017-10-16T13:30:23Z</time>
      </trkpt>
      <trkpt lat="43.5066" lon="6.39003">
        <ele>168.37</ele>
        <time>2017-10-16T13:30:32Z</time>
      </trkpt>
      <trkpt lat="43.50642" lon="6.39009">
        <ele>170.16</ele>
        <time>2017-10-16T13:30:39Z</time>
      </trkpt>
      <trkpt lat="43.50643" lon="6.38983">
        <ele>173.29</ele>
        <time>2017-10-16T13:30:49Z</time>
      </trkpt>
      <trkpt lat="43.50639" lon="6.38956">
        <ele>175.32</ele>
        <time>2017-10-16T13:30:57Z</time>
      </trkpt>
      <trkpt lat="43.50633" lon="6.38933">
        <ele>175.33</ele>
        <time>2017-10-16T13:31:03Z</time>
      </trkpt>
      <trkpt lat="43.50621" lon="6.38911">
        <ele>176.33</ele>
        <time>2017-10-16T13:31:11Z</time>
      </trkpt>
      <trkpt lat="43.50603" lon="6.38912">
        <ele>178.32</ele>
        <time>2017-10-16T13:31:20Z</time>
      </trkpt>
      <trkpt lat="43.50583" lon="6.38913">
        <ele>180.33</ele>
        <time>2017-10-16T13:31:29Z</time>
      </trkpt>
      <trkpt lat="43.50563" lon="6.38913">
        <ele>182.32</ele>
        <time>2017-10-16T13:31:38Z</time>
      </trkpt>
      <trkpt lat="43.50545" lon="6.3891">
        <ele>182.33</ele>
        <time>2017-10-16T13:31:45Z</time>
      </trkpt>
      <trkpt lat="43.50526" lon="6.38901">
        <ele>183.32</ele>
        <time>2017-10-16T13:31:52Z</time>
      </trkpt>
      <trkpt lat="43.5051" lon="6.38887">
        <ele>185.29</ele>
        <time>2017-10-16T13:31:59Z</time>
      </trkpt>
      <trkpt lat="43.50493" lon="6.38874">
        <ele>186.3</ele>
        <time>2017-10-16T13:32:06Z</time>
      </trkpt>
      <trkpt lat="43.50476" lon="6.38859">
        <ele>186.33</ele>
        <time>2017-10-16T13:32:13Z</time>
      </trkpt>
      <trkpt lat="43.50459" lon="6.38842">
        <ele>188.13</ele>
        <time>2017-10-16T13:32:20Z</time>
      </trkpt>
      <trkpt lat="43.50443" lon="6.38829">
        <ele>189.33</ele>
        <time>2017-10-16T13:32:26Z</time>
      </trkpt>
      <trkpt lat="43.50424" lon="6.38828">
        <ele>189.33</ele>
        <time>2017-10-16T13:32:32Z</time>
      </trkpt>
      <trkpt lat="43.50405" lon="6.38836">
        <ele>190.33</ele>
        <time>2017-10-16T13:32:38Z</time>
      </trkpt>
      <trkpt lat="43.50386" lon="6.38845">
        <ele>190.33</ele>
        <time>2017-10-16T13:32:44Z</time>
      </trkpt>
      <trkpt lat="43.50367" lon="6.38849">
        <ele>189.33</ele>
        <time>2017-10-16T13:32:50Z</time>
      </trkpt>
      <trkpt lat="43.50347" lon="6.38848">
        <ele>190.33</ele>
        <time>2017-10-16T13:32:57Z</time>
      </trkpt>
      <trkpt lat="43.50328" lon="6.38846">
        <ele>191.13</ele>
        <time>2017-10-16T13:33:04Z</time>
      </trkpt>
      <trkpt lat="43.50308" lon="6.38842">
        <ele>186.97</ele>
        <time>2017-10-16T13:33:08Z</time>
      </trkpt>
      <trkpt lat="43.50285" lon="6.38838">
        <ele>186.53</ele>
        <time>2017-10-16T13:33:12Z</time>
      </trkpt>
      <trkpt lat="43.50263" lon="6.38833">
        <ele>187.33</ele>
        <time>2017-10-16T13:33:16Z</time>
      </trkpt>
      <trkpt lat="43.50244" lon="6.38826">
        <ele>186.33</ele>
        <time>2017-10-16T13:33:20Z</time>
      </trkpt>
      <trkpt lat="43.50226" lon="6.38825">
        <ele>185.33</ele>
        <time>2017-10-16T13:33:24Z</time>
      </trkpt>
      <trkpt lat="43.50217" lon="6.38854">
        <ele>182.54</ele>
        <time>2017-10-16T13:33:30Z</time>
      </trkpt>
      <trkpt lat="43.50213" lon="6.3888">
        <ele>182.33</ele>
        <time>2017-10-16T13:33:34Z</time>
      </trkpt>
      <trkpt lat="43.50207" lon="6.38908">
        <ele>182.49</ele>
        <time>2017-10-16T13:33:38Z</time>
      </trkpt>
      <trkpt lat="43.50201" lon="6.38935">
        <ele>181.37</ele>
        <time>2017-10-16T13:33:42Z</time>
      </trkpt>
      <trkpt lat="43.50197" lon="6.3896">
        <ele>182.29</ele>
        <time>2017-10-16T13:33:46Z</time>
      </trkpt>
      <trkpt lat="43.50192" lon="6.38987">
        <ele>180.5</ele>
        <time>2017-10-16T13:33:50Z</time>
      </trkpt>
      <trkpt lat="43.50188" lon="6.39014">
        <ele>180.33</ele>
        <time>2017-10-16T13:33:54Z</time>
      </trkpt>
      <trkpt lat="43.50183" lon="6.39042">
        <ele>181.32</ele>
        <time>2017-10-16T13:33:59Z</time>
      </trkpt>
      <trkpt lat="43.5018" lon="6.39068">
        <ele>183.13</ele>
        <time>2017-10-16T13:34:04Z</time>
      </trkpt>
      <trkpt lat="43.50176" lon="6.39096">
        <ele>185.13</ele>
        <time>2017-10-16T13:34:10Z</time>
      </trkpt>
      <trkpt lat="43.50171" lon="6.3912">
        <ele>184.37</ele>
        <time>2017-10-16T13:34:15Z</time>
      </trkpt>
      <trkpt lat="43.50167" lon="6.39147">
        <ele>185.33</ele>
        <time>2017-10-16T13:34:21Z</time>
      </trkpt>
      <trkpt lat="43.50163" lon="6.39171">
        <ele>187.25</ele>
        <time>2017-10-16T13:34:26Z</time>
      </trkpt>
      <trkpt lat="43.5016" lon="6.39201">
        <ele>189.13</ele>
        <time>2017-10-16T13:34:30Z</time>
      </trkpt>
      <trkpt lat="43.50157" lon="6.39227">
        <ele>188.34</ele>
        <time>2017-10-16T13:34:33Z</time>
      </trkpt>
      <trkpt lat="43.50151" lon="6.39256">
        <ele>188.33</ele>
        <time>2017-10-16T13:34:37Z</time>
      </trkpt>
      <trkpt lat="43.50143" lon="6.3928">
        <ele>190.09</ele>
        <time>2017-10-16T13:34:41Z</time>
      </trkpt>
      <trkpt lat="43.50132" lon="6.39301">
        <ele>191.13</ele>
        <time>2017-10-16T13:34:45Z</time>
      </trkpt>
      <trkpt lat="43.50123" lon="6.39327">
        <ele>191.34</ele>
        <time>2017-10-16T13:34:50Z</time>
      </trkpt>
      <trkpt lat="43.50115" lon="6.39356">
        <ele>189.39</ele>
        <time>2017-10-16T13:34:55Z</time>
      </trkpt>
      <trkpt lat="43.50115" lon="6.39385">
        <ele>187.53</ele>
        <time>2017-10-16T13:35:00Z</time>
      </trkpt>
      <trkpt lat="43.50121" lon="6.3941">
        <ele>185.54</ele>
        <time>2017-10-16T13:35:04Z</time>
      </trkpt>
      <trkpt lat="43.50132" lon="6.39437">
        <ele>181.74</ele>
        <time>2017-10-16T13:35:08Z</time>
      </trkpt>
      <trkpt lat="43.50141" lon="6.39463">
        <ele>180.53</ele>
        <time>2017-10-16T13:35:12Z</time>
      </trkpt>
      <trkpt lat="43.50144" lon="6.39493">
        <ele>180.37</ele>
        <time>2017-10-16T13:35:16Z</time>
      </trkpt>
      <trkpt lat="43.50146" lon="6.39522">
        <ele>179.37</ele>
        <time>2017-10-16T13:35:20Z</time>
      </trkpt>
      <trkpt lat="43.50148" lon="6.39553">
        <ele>177.37</ele>
        <time>2017-10-16T13:35:24Z</time>
      </trkpt>
      <trkpt lat="43.50149" lon="6.39582">
        <ele>177.33</ele>
        <time>2017-10-16T13:35:28Z</time>
      </trkpt>
      <trkpt lat="43.50149" lon="6.39608">
        <ele>174.54</ele>
        <time>2017-10-16T13:35:32Z</time>
      </trkpt>
      <trkpt lat="43.50155" lon="6.39633">
        <ele>172.57</ele>
        <time>2017-10-16T13:35:36Z</time>
      </trkpt>
      <trkpt lat="43.50158" lon="6.3966">
        <ele>170.57</ele>
        <time>2017-10-16T13:35:40Z</time>
      </trkpt>
      <trkpt lat="43.50156" lon="6.3969">
        <ele>167.58</ele>
        <time>2017-10-16T13:35:44Z</time>
      </trkpt>
      <trkpt lat="43.50153" lon="6.39721">
        <ele>168.29</ele>
        <time>2017-10-16T13:35:48Z</time>
      </trkpt>
      <trkpt lat="43.50151" lon="6.39749">
        <ele>166.37</ele>
        <time>2017-10-16T13:35:52Z</time>
      </trkpt>
      <trkpt lat="43.5015" lon="6.39776">
        <ele>166.14</ele>
        <time>2017-10-16T13:35:56Z</time>
      </trkpt>
      <trkpt lat="43.5015" lon="6.39806">
        <ele>163.42</ele>
        <time>2017-10-16T13:36:00Z</time>
      </trkpt>
      <trkpt lat="43.50148" lon="6.39836">
        <ele>162.54</ele>
        <time>2017-10-16T13:36:04Z</time>
      </trkpt>
      <trkpt lat="43.50146" lon="6.39867">
        <ele>161.34</ele>
        <time>2017-10-16T13:36:08Z</time>
      </trkpt>
      <trkpt lat="43.50144" lon="6.39894">
        <ele>159.54</ele>
        <time>2017-10-16T13:36:12Z</time>
      </trkpt>
      <trkpt lat="43.50148" lon="6.39925">
        <ele>157.34</ele>
        <time>2017-10-16T13:36:16Z</time>
      </trkpt>
      <trkpt lat="43.50158" lon="6.39951">
        <ele>155.34</ele>
        <time>2017-10-16T13:36:20Z</time>
      </trkpt>
      <trkpt lat="43.50173" lon="6.39967">
        <ele>154.73</ele>
        <time>2017-10-16T13:36:24Z</time>
      </trkpt>
      <trkpt lat="43.50191" lon="6.39985">
        <ele>152.54</ele>
        <time>2017-10-16T13:36:28Z</time>
      </trkpt>
      <trkpt lat="43.50211" lon="6.39997">
        <ele>151.5</ele>
        <time>2017-10-16T13:36:32Z</time>
      </trkpt>
      <trkpt lat="43.5023" lon="6.40005">
        <ele>150.34</ele>
        <time>2017-10-16T13:36:36Z</time>
      </trkpt>
      <trkpt lat="43.50252" lon="6.40006">
        <ele>149.34</ele>
        <time>2017-10-16T13:36:41Z</time>
      </trkpt>
      <trkpt lat="43.5027" lon="6.40003">
        <ele>147.53</ele>
        <time>2017-10-16T13:36:45Z</time>
      </trkpt>
      <trkpt lat="43.50289" lon="6.40013">
        <ele>144.57</ele>
        <time>2017-10-16T13:36:49Z</time>
      </trkpt>
      <trkpt lat="43.50306" lon="6.40029">
        <ele>143.34</ele>
        <time>2017-10-16T13:36:54Z</time>
      </trkpt>
      <trkpt lat="43.50303" lon="6.40057">
        <ele>143.33</ele>
        <time>2017-10-16T13:37:01Z</time>
      </trkpt>
      <trkpt lat="43.50292" lon="6.40078">
        <ele>143.33</ele>
        <time>2017-10-16T13:37:06Z</time>
      </trkpt>
      <trkpt lat="43.50279" lon="6.40099">
        <ele>143.34</ele>
        <time>2017-10-16T13:37:12Z</time>
      </trkpt>
      <trkpt lat="43.5028" lon="6.40124">
        <ele>142.37</ele>
        <time>2017-10-16T13:37:17Z</time>
      </trkpt>
      <trkpt lat="43.50295" lon="6.40141">
        <ele>140.34</ele>
        <time>2017-10-16T13:37:23Z</time>
      </trkpt>
      <trkpt lat="43.50302" lon="6.40164">
        <ele>143.33</ele>
        <time>2017-10-16T13:37:39Z</time>
      </trkpt>
      <trkpt lat="43.50305" lon="6.40189">
        <ele>146.33</ele>
        <time>2017-10-16T13:37:56Z</time>
      </trkpt>
      <trkpt lat="43.50307" lon="6.40215">
        <ele>150.29</ele>
        <time>2017-10-16T13:38:15Z</time>
      </trkpt>
      <trkpt lat="43.50304" lon="6.40239">
        <ele>154.14</ele>
        <time>2017-10-16T13:38:35Z</time>
      </trkpt>
      <trkpt lat="43.503" lon="6.40264">
        <ele>157.29</ele>
        <time>2017-10-16T13:38:59Z</time>
      </trkpt>
      <trkpt lat="43.50293" lon="6.40289">
        <ele>161.52</ele>
        <time>2017-10-16T13:39:11Z</time>
      </trkpt>
      <trkpt lat="43.5029" lon="6.40314">
        <ele>162.19</ele>
        <time>2017-10-16T13:39:22Z</time>
      </trkpt>
      <trkpt lat="43.50294" lon="6.4034">
        <ele>160.21</ele>
        <time>2017-10-16T13:39:34Z</time>
      </trkpt>
      <trkpt lat="43.50303" lon="6.40363">
        <ele>160.17</ele>
        <time>2017-10-16T13:39:45Z</time>
      </trkpt>
      <trkpt lat="43.50304" lon="6.40388">
        <ele>166.32</ele>
        <time>2017-10-16T13:40:07Z</time>
      </trkpt>
      <trkpt lat="43.50302" lon="6.40414">
        <ele>172.13</ele>
        <time>2017-10-16T13:40:26Z</time>
      </trkpt>
      <trkpt lat="43.50308" lon="6.40439">
        <ele>170.34</ele>
        <time>2017-10-16T13:40:46Z</time>
      </trkpt>
      <trkpt lat="43.50317" lon="6.40463">
        <ele>170.33</ele>
        <time>2017-10-16T13:40:55Z</time>
      </trkpt>
      <trkpt lat="43.50328" lon="6.40486">
        <ele>171.13</ele>
        <time>2017-10-16T13:41:05Z</time>
      </trkpt>
      <trkpt lat="43.50332" lon="6.40511">
        <ele>171.33</ele>
        <time>2017-10-16T13:41:13Z</time>
      </trkpt>
      <trkpt lat="43.50327" lon="6.40536">
        <ele>169.53</ele>
        <time>2017-10-16T13:41:19Z</time>
      </trkpt>
      <trkpt lat="43.50331" lon="6.40562">
        <ele>170.33</ele>
        <time>2017-10-16T13:41:27Z</time>
      </trkpt>
      <trkpt lat="43.50349" lon="6.4057">
        <ele>171.33</ele>
        <time>2017-10-16T13:41:35Z</time>
      </trkpt>
      <trkpt lat="43.50368" lon="6.4057">
        <ele>175.12</ele>
        <time>2017-10-16T13:41:44Z</time>
      </trkpt>
      <trkpt lat="43.50388" lon="6.40572">
        <ele>176.33</ele>
        <time>2017-10-16T13:41:54Z</time>
      </trkpt>
      <trkpt lat="43.50408" lon="6.40578">
        <ele>177.3</ele>
        <time>2017-10-16T13:42:03Z</time>
      </trkpt>
      <trkpt lat="43.50425" lon="6.40586">
        <ele>178.97</ele>
        <time>2017-10-16T13:42:12Z</time>
      </trkpt>
      <trkpt lat="43.50442" lon="6.40597">
        <ele>178.57</ele>
        <time>2017-10-16T13:42:21Z</time>
      </trkpt>
      <trkpt lat="43.50455" lon="6.40615">
        <ele>177.17</ele>
        <time>2017-10-16T13:42:31Z</time>
      </trkpt>
      <trkpt lat="43.50464" lon="6.4064">
        <ele>178.29</ele>
        <time>2017-10-16T13:42:42Z</time>
      </trkpt>
      <trkpt lat="43.50472" lon="6.40664">
        <ele>179.32</ele>
        <time>2017-10-16T13:42:51Z</time>
      </trkpt>
      <trkpt lat="43.50484" lon="6.40686">
        <ele>180.7</ele>
        <time>2017-10-16T13:43:00Z</time>
      </trkpt>
      <trkpt lat="43.50498" lon="6.40703">
        <ele>182.17</ele>
        <time>2017-10-16T13:43:07Z</time>
      </trkpt>
      <trkpt lat="43.50514" lon="6.40717">
        <ele>182.33</ele>
        <time>2017-10-16T13:43:14Z</time>
      </trkpt>
      <trkpt lat="43.50531" lon="6.40732">
        <ele>182.33</ele>
        <time>2017-10-16T13:43:22Z</time>
      </trkpt>
      <trkpt lat="43.50546" lon="6.40748">
        <ele>179.37</ele>
        <time>2017-10-16T13:43:29Z</time>
      </trkpt>
      <trkpt lat="43.50556" lon="6.40773">
        <ele>178.53</ele>
        <time>2017-10-16T13:43:36Z</time>
      </trkpt>
      <trkpt lat="43.5056" lon="6.40797">
        <ele>178.37</ele>
        <time>2017-10-16T13:43:42Z</time>
      </trkpt>
      <trkpt lat="43.50567" lon="6.40823">
        <ele>176.73</ele>
        <time>2017-10-16T13:43:48Z</time>
      </trkpt>
      <trkpt lat="43.50577" lon="6.40848">
        <ele>177.13</ele>
        <time>2017-10-16T13:43:55Z</time>
      </trkpt>
      <trkpt lat="43.50584" lon="6.40873">
        <ele>179.33</ele>
        <time>2017-10-16T13:44:02Z</time>
      </trkpt>
      <trkpt lat="43.50581" lon="6.409">
        <ele>183.13</ele>
        <time>2017-10-16T13:44:10Z</time>
      </trkpt>
      <trkpt lat="43.50576" lon="6.40927">
        <ele>185.33</ele>
        <time>2017-10-16T13:44:18Z</time>
      </trkpt>
      <trkpt lat="43.50579" lon="6.40954">
        <ele>185.33</ele>
        <time>2017-10-16T13:44:25Z</time>
      </trkpt>
      <trkpt lat="43.50581" lon="6.4098">
        <ele>185.3</ele>
        <time>2017-10-16T13:44:32Z</time>
      </trkpt>
      <trkpt lat="43.50576" lon="6.41007">
        <ele>187.13</ele>
        <time>2017-10-16T13:44:41Z</time>
      </trkpt>
      <trkpt lat="43.50567" lon="6.41028">
        <ele>190.28</ele>
        <time>2017-10-16T13:44:50Z</time>
      </trkpt>
      <trkpt lat="43.5056" lon="6.41054">
        <ele>195.29</ele>
        <time>2017-10-16T13:45:00Z</time>
      </trkpt>
      <trkpt lat="43.50556" lon="6.41078">
        <ele>193.55</ele>
        <time>2017-10-16T13:45:09Z</time>
      </trkpt>
      <trkpt lat="43.50552" lon="6.41105">
        <ele>195.29</ele>
        <time>2017-10-16T13:45:19Z</time>
      </trkpt>
      <trkpt lat="43.50548" lon="6.41129">
        <ele>199.32</ele>
        <time>2017-10-16T13:45:29Z</time>
      </trkpt>
      <trkpt lat="43.50542" lon="6.41154">
        <ele>201.98</ele>
        <time>2017-10-16T13:45:44Z</time>
      </trkpt>
      <trkpt lat="43.50535" lon="6.41178">
        <ele>204.14</ele>
        <time>2017-10-16T13:46:00Z</time>
      </trkpt>
      <trkpt lat="43.50524" lon="6.41199">
        <ele>206.33</ele>
        <time>2017-10-16T13:46:12Z</time>
      </trkpt>
      <trkpt lat="43.50512" lon="6.41218">
        <ele>207.33</ele>
        <time>2017-10-16T13:46:23Z</time>
      </trkpt>
      <trkpt lat="43.50502" lon="6.41241">
        <ele>209.29</ele>
        <time>2017-10-16T13:46:35Z</time>
      </trkpt>
      <trkpt lat="43.50493" lon="6.41264">
        <ele>213.12</ele>
        <time>2017-10-16T13:46:48Z</time>
      </trkpt>
      <trkpt lat="43.50488" lon="6.41289">
        <ele>215.14</ele>
        <time>2017-10-16T13:47:03Z</time>
      </trkpt>
      <trkpt lat="43.50486" lon="6.41315">
        <ele>217.13</ele>
        <time>2017-10-16T13:47:16Z</time>
      </trkpt>
      <trkpt lat="43.50483" lon="6.41341">
        <ele>218.29</ele>
        <time>2017-10-16T13:47:29Z</time>
      </trkpt>
      <trkpt lat="43.50472" lon="6.41362">
        <ele>219.37</ele>
        <time>2017-10-16T13:47:42Z</time>
      </trkpt>
      <trkpt lat="43.50461" lon="6.41382">
        <ele>221.33</ele>
        <time>2017-10-16T13:47:56Z</time>
      </trkpt>
      <trkpt lat="43.50448" lon="6.41399">
        <ele>224.32</ele>
        <time>2017-10-16T13:48:09Z</time>
      </trkpt>
      <trkpt lat="43.50436" lon="6.4142">
        <ele>226.13</ele>
        <time>2017-10-16T13:48:21Z</time>
      </trkpt>
      <trkpt lat="43.50426" lon="6.4144">
        <ele>224.29</ele>
        <time>2017-10-16T13:48:33Z</time>
      </trkpt>
      <trkpt lat="43.50416" lon="6.41464">
        <ele>224.73</ele>
        <time>2017-10-16T13:48:45Z</time>
      </trkpt>
      <trkpt lat="43.50407" lon="6.41485">
        <ele>225.15</ele>
        <time>2017-10-16T13:48:55Z</time>
      </trkpt>
      <trkpt lat="43.50397" lon="6.41507">
        <ele>225.29</ele>
        <time>2017-10-16T13:49:07Z</time>
      </trkpt>
      <trkpt lat="43.50389" lon="6.4153">
        <ele>227.29</ele>
        <time>2017-10-16T13:49:17Z</time>
      </trkpt>
      <trkpt lat="43.50381" lon="6.41554">
        <ele>230.32</ele>
        <time>2017-10-16T13:49:27Z</time>
      </trkpt>
      <trkpt lat="43.50376" lon="6.4158">
        <ele>231.33</ele>
        <time>2017-10-16T13:49:37Z</time>
      </trkpt>
      <trkpt lat="43.50371" lon="6.41606">
        <ele>232.33</ele>
        <time>2017-10-16T13:49:47Z</time>
      </trkpt>
      <trkpt lat="43.50369" lon="6.41632">
        <ele>234.29</ele>
        <time>2017-10-16T13:49:57Z</time>
      </trkpt>
      <trkpt lat="43.50364" lon="6.41659">
        <ele>236.29</ele>
        <time>2017-10-16T13:50:08Z</time>
      </trkpt>
      <trkpt lat="43.50367" lon="6.41685">
        <ele>234.38</ele>
        <time>2017-10-16T13:50:20Z</time>
      </trkpt>
      <trkpt lat="43.5038" lon="6.41702">
        <ele>233.14</ele>
        <time>2017-10-16T13:50:29Z</time>
      </trkpt>
      <trkpt lat="43.50395" lon="6.41717">
        <ele>241.17</ele>
        <time>2017-10-16T13:50:40Z</time>
      </trkpt>
      <trkpt lat="43.50411" lon="6.41732">
        <ele>239.09</ele>
        <time>2017-10-16T13:50:49Z</time>
      </trkpt>
      <trkpt lat="43.50428" lon="6.41742">
        <ele>237.29</ele>
        <time>2017-10-16T13:50:57Z</time>
      </trkpt>
      <trkpt lat="43.50446" lon="6.41753">
        <ele>237.59</ele>
        <time>2017-10-16T13:51:07Z</time>
      </trkpt>
      <trkpt lat="43.50443" lon="6.41778">
        <ele>242.29</ele>
        <time>2017-10-16T13:51:25Z</time>
      </trkpt>
      <trkpt lat="43.50429" lon="6.41795">
        <ele>243.93</ele>
        <time>2017-10-16T13:51:32Z</time>
      </trkpt>
      <trkpt lat="43.50413" lon="6.41815">
        <ele>245.3</ele>
        <time>2017-10-16T13:51:39Z</time>
      </trkpt>
      <trkpt lat="43.50397" lon="6.41833">
        <ele>249.32</ele>
        <time>2017-10-16T13:51:46Z</time>
      </trkpt>
      <trkpt lat="43.50382" lon="6.41852">
        <ele>250.13</ele>
        <time>2017-10-16T13:51:52Z</time>
      </trkpt>
      <trkpt lat="43.50366" lon="6.41865">
        <ele>244.6</ele>
        <time>2017-10-16T13:51:56Z</time>
      </trkpt>
      <trkpt lat="43.50344" lon="6.41875">
        <ele>244.49</ele>
        <time>2017-10-16T13:52:00Z</time>
      </trkpt>
      <trkpt lat="43.50324" lon="6.41884">
        <ele>238.59</ele>
        <time>2017-10-16T13:52:04Z</time>
      </trkpt>
      <trkpt lat="43.50301" lon="6.41893">
        <ele>234.74</ele>
        <time>2017-10-16T13:52:08Z</time>
      </trkpt>
      <trkpt lat="43.50284" lon="6.419">
        <ele>230.62</ele>
        <time>2017-10-16T13:52:11Z</time>
      </trkpt>
      <trkpt lat="43.50266" lon="6.4191">
        <ele>227.58</ele>
        <time>2017-10-16T13:52:14Z</time>
      </trkpt>
      <trkpt lat="43.5025" lon="6.41922">
        <ele>226.34</ele>
        <time>2017-10-16T13:52:17Z</time>
      </trkpt>
      <trkpt lat="43.5023" lon="6.41928">
        <ele>225.37</ele>
        <time>2017-10-16T13:52:26Z</time>
      </trkpt>
      <trkpt lat="43.50216" lon="6.41944">
        <ele>226.33</ele>
        <time>2017-10-16T13:52:32Z</time>
      </trkpt>
      <trkpt lat="43.5022" lon="6.41972">
        <ele>226.33</ele>
        <time>2017-10-16T13:52:38Z</time>
      </trkpt>
      <trkpt lat="43.50242" lon="6.41975">
        <ele>223.37</ele>
        <time>2017-10-16T13:52:43Z</time>
      </trkpt>
      <trkpt lat="43.5026" lon="6.41981">
        <ele>222.33</ele>
        <time>2017-10-16T13:52:47Z</time>
      </trkpt>
      <trkpt lat="43.50277" lon="6.41992">
        <ele>221.53</ele>
        <time>2017-10-16T13:52:51Z</time>
      </trkpt>
      <trkpt lat="43.50293" lon="6.42005">
        <ele>222.33</ele>
        <time>2017-10-16T13:52:55Z</time>
      </trkpt>
      <trkpt lat="43.50312" lon="6.42021">
        <ele>222.33</ele>
        <time>2017-10-16T13:53:00Z</time>
      </trkpt>
      <trkpt lat="43.50328" lon="6.42035">
        <ele>222.33</ele>
        <time>2017-10-16T13:53:04Z</time>
      </trkpt>
      <trkpt lat="43.50343" lon="6.4205">
        <ele>223.29</ele>
        <time>2017-10-16T13:53:08Z</time>
      </trkpt>
      <trkpt lat="43.50359" lon="6.42065">
        <ele>223.13</ele>
        <time>2017-10-16T13:53:12Z</time>
      </trkpt>
      <trkpt lat="43.50374" lon="6.4208">
        <ele>223.33</ele>
        <time>2017-10-16T13:53:16Z</time>
      </trkpt>
      <trkpt lat="43.50391" lon="6.42096">
        <ele>223.33</ele>
        <time>2017-10-16T13:53:20Z</time>
      </trkpt>
      <trkpt lat="43.50408" lon="6.42108">
        <ele>224.29</ele>
        <time>2017-10-16T13:53:24Z</time>
      </trkpt>
      <trkpt lat="43.50427" lon="6.42118">
        <ele>223.53</ele>
        <time>2017-10-16T13:53:28Z</time>
      </trkpt>
      <trkpt lat="43.5045" lon="6.42123">
        <ele>223.37</ele>
        <time>2017-10-16T13:53:32Z</time>
      </trkpt>
      <trkpt lat="43.50472" lon="6.42122">
        <ele>222.33</ele>
        <time>2017-10-16T13:53:36Z</time>
      </trkpt>
      <trkpt lat="43.50491" lon="6.42119">
        <ele>222.33</ele>
        <time>2017-10-16T13:53:39Z</time>
      </trkpt>
      <trkpt lat="43.50508" lon="6.42112">
        <ele>222.33</ele>
        <time>2017-10-16T13:53:42Z</time>
      </trkpt>
      <trkpt lat="43.50525" lon="6.42103">
        <ele>221.37</ele>
        <time>2017-10-16T13:53:45Z</time>
      </trkpt>
      <trkpt lat="43.50544" lon="6.42091">
        <ele>221.33</ele>
        <time>2017-10-16T13:53:48Z</time>
      </trkpt>
      <trkpt lat="43.50565" lon="6.42082">
        <ele>221.33</ele>
        <time>2017-10-16T13:53:51Z</time>
      </trkpt>
      <trkpt lat="43.50591" lon="6.42075">
        <ele>219.54</ele>
        <time>2017-10-16T13:53:54Z</time>
      </trkpt>
      <trkpt lat="43.50617" lon="6.42078">
        <ele>218.34</ele>
        <time>2017-10-16T13:53:57Z</time>
      </trkpt>
      <trkpt lat="43.50643" lon="6.42091">
        <ele>218.37</ele>
        <time>2017-10-16T13:54:00Z</time>
      </trkpt>
      <trkpt lat="43.50657" lon="6.42106">
        <ele>217.37</ele>
        <time>2017-10-16T13:54:02Z</time>
      </trkpt>
      <trkpt lat="43.50676" lon="6.42133">
        <ele>217.33</ele>
        <time>2017-10-16T13:54:05Z</time>
      </trkpt>
      <trkpt lat="43.50693" lon="6.42159">
        <ele>218.29</ele>
        <time>2017-10-16T13:54:08Z</time>
      </trkpt>
      <trkpt lat="43.50708" lon="6.42186">
        <ele>217.34</ele>
        <time>2017-10-16T13:54:11Z</time>
      </trkpt>
      <trkpt lat="43.50722" lon="6.42214">
        <ele>217.33</ele>
        <time>2017-10-16T13:54:14Z</time>
      </trkpt>
      <trkpt lat="43.50732" lon="6.42243">
        <ele>216.53</ele>
        <time>2017-10-16T13:54:17Z</time>
      </trkpt>
      <trkpt lat="43.50739" lon="6.42273">
        <ele>217.33</ele>
        <time>2017-10-16T13:54:20Z</time>
      </trkpt>
      <trkpt lat="43.50745" lon="6.42301">
        <ele>218.29</ele>
        <time>2017-10-16T13:54:23Z</time>
      </trkpt>
      <trkpt lat="43.50752" lon="6.42329">
        <ele>219.48</ele>
        <time>2017-10-16T13:54:26Z</time>
      </trkpt>
      <trkpt lat="43.50762" lon="6.42353">
        <ele>219.49</ele>
        <time>2017-10-16T13:54:29Z</time>
      </trkpt>
      <trkpt lat="43.50774" lon="6.42376">
        <ele>220.33</ele>
        <time>2017-10-16T13:54:32Z</time>
      </trkpt>
      <trkpt lat="43.50785" lon="6.42395">
        <ele>220.36</ele>
        <time>2017-10-16T13:54:35Z</time>
      </trkpt>
      <trkpt lat="43.50796" lon="6.42415">
        <ele>221.52</ele>
        <time>2017-10-16T13:54:38Z</time>
      </trkpt>
      <trkpt lat="43.50814" lon="6.42433">
        <ele>221.49</ele>
        <time>2017-10-16T13:54:41Z</time>
      </trkpt>
      <trkpt lat="43.50832" lon="6.42447">
        <ele>220.53</ele>
        <time>2017-10-16T13:54:44Z</time>
      </trkpt>
      <trkpt lat="43.50851" lon="6.4246">
        <ele>220.33</ele>
        <time>2017-10-16T13:54:47Z</time>
      </trkpt>
      <trkpt lat="43.5087" lon="6.42471">
        <ele>220.53</ele>
        <time>2017-10-16T13:54:50Z</time>
      </trkpt>
      <trkpt lat="43.50889" lon="6.42483">
        <ele>218.73</ele>
        <time>2017-10-16T13:54:53Z</time>
      </trkpt>
      <trkpt lat="43.50906" lon="6.42494">
        <ele>217.7</ele>
        <time>2017-10-16T13:54:56Z</time>
      </trkpt>
      <trkpt lat="43.50928" lon="6.42504">
        <ele>218.29</ele>
        <time>2017-10-16T13:55:00Z</time>
      </trkpt>
      <trkpt lat="43.50945" lon="6.42518">
        <ele>221.92</ele>
        <time>2017-10-16T13:55:04Z</time>
      </trkpt>
      <trkpt lat="43.50965" lon="6.42531">
        <ele>225.28</ele>
        <time>2017-10-16T13:55:08Z</time>
      </trkpt>
      <trkpt lat="43.50982" lon="6.42545">
        <ele>226.49</ele>
        <time>2017-10-16T13:55:12Z</time>
      </trkpt>
      <trkpt lat="43.50995" lon="6.42564">
        <ele>221.39</ele>
        <time>2017-10-16T13:55:17Z</time>
      </trkpt>
      <trkpt lat="43.50983" lon="6.42584">
        <ele>224.24</ele>
        <time>2017-10-16T13:55:23Z</time>
      </trkpt>
      <trkpt lat="43.50967" lon="6.42599">
        <ele>224.33</ele>
        <time>2017-10-16T13:55:29Z</time>
      </trkpt>
      <trkpt lat="43.50954" lon="6.42616">
        <ele>223.34</ele>
        <time>2017-10-16T13:55:35Z</time>
      </trkpt>
      <trkpt lat="43.50939" lon="6.42631">
        <ele>225.32</ele>
        <time>2017-10-16T13:55:41Z</time>
      </trkpt>
      <trkpt lat="43.50921" lon="6.42642">
        <ele>227.13</ele>
        <time>2017-10-16T13:55:47Z</time>
      </trkpt>
      <trkpt lat="43.50902" lon="6.4265">
        <ele>226.33</ele>
        <time>2017-10-16T13:55:53Z</time>
      </trkpt>
      <trkpt lat="43.50882" lon="6.42655">
        <ele>227.33</ele>
        <time>2017-10-16T13:55:59Z</time>
      </trkpt>
      <trkpt lat="43.50862" lon="6.4266">
        <ele>228.29</ele>
        <time>2017-10-16T13:56:05Z</time>
      </trkpt>
      <trkpt lat="43.50842" lon="6.42664">
        <ele>229.16</ele>
        <time>2017-10-16T13:56:11Z</time>
      </trkpt>
      <trkpt lat="43.50823" lon="6.4267">
        <ele>228.17</ele>
        <time>2017-10-16T13:56:17Z</time>
      </trkpt>
      <trkpt lat="43.50807" lon="6.42682">
        <ele>227.31</ele>
        <time>2017-10-16T13:56:23Z</time>
      </trkpt>
      <trkpt lat="43.5079" lon="6.42694">
        <ele>226.37</ele>
        <time>2017-10-16T13:56:29Z</time>
      </trkpt>
      <trkpt lat="43.50773" lon="6.4271">
        <ele>228.89</ele>
        <time>2017-10-16T13:56:34Z</time>
      </trkpt>
      <trkpt lat="43.50759" lon="6.42725">
        <ele>228.52</ele>
        <time>2017-10-16T13:56:39Z</time>
      </trkpt>
      <trkpt lat="43.50745" lon="6.42741">
        <ele>230.12</ele>
        <time>2017-10-16T13:56:44Z</time>
      </trkpt>
      <trkpt lat="43.50733" lon="6.42761">
        <ele>228.97</ele>
        <time>2017-10-16T13:56:49Z</time>
      </trkpt>
      <trkpt lat="43.50721" lon="6.42782">
        <ele>231.16</ele>
        <time>2017-10-16T13:56:54Z</time>
      </trkpt>
      <trkpt lat="43.50712" lon="6.42804">
        <ele>231.52</ele>
        <time>2017-10-16T13:56:58Z</time>
      </trkpt>
      <trkpt lat="43.50698" lon="6.42829">
        <ele>232.33</ele>
        <time>2017-10-16T13:57:03Z</time>
      </trkpt>
      <trkpt lat="43.5068" lon="6.42846">
        <ele>229.37</ele>
        <time>2017-10-16T13:57:08Z</time>
      </trkpt>
      <trkpt lat="43.50661" lon="6.4285">
        <ele>230.33</ele>
        <time>2017-10-16T13:57:12Z</time>
      </trkpt>
      <trkpt lat="43.5064" lon="6.4285">
        <ele>230.37</ele>
        <time>2017-10-16T13:57:16Z</time>
      </trkpt>
      <trkpt lat="43.50618" lon="6.42856">
        <ele>229.34</ele>
        <time>2017-10-16T13:57:20Z</time>
      </trkpt>
      <trkpt lat="43.50596" lon="6.42864">
        <ele>227.12</ele>
        <time>2017-10-16T13:57:24Z</time>
      </trkpt>
      <trkpt lat="43.50579" lon="6.42872">
        <ele>226.5</ele>
        <time>2017-10-16T13:57:27Z</time>
      </trkpt>
      <trkpt lat="43.50559" lon="6.42882">
        <ele>227.34</ele>
        <time>2017-10-16T13:57:31Z</time>
      </trkpt>
      <trkpt lat="43.50537" lon="6.42896">
        <ele>227.14</ele>
        <time>2017-10-16T13:57:35Z</time>
      </trkpt>
      <trkpt lat="43.5052" lon="6.42905">
        <ele>222.98</ele>
        <time>2017-10-16T13:57:38Z</time>
      </trkpt>
      <trkpt lat="43.50499" lon="6.42915">
        <ele>222.34</ele>
        <time>2017-10-16T13:57:41Z</time>
      </trkpt>
      <trkpt lat="43.50481" lon="6.42921">
        <ele>222.56</ele>
        <time>2017-10-16T13:57:44Z</time>
      </trkpt>
      <trkpt lat="43.5046" lon="6.42931">
        <ele>224.13</ele>
        <time>2017-10-16T13:57:47Z</time>
      </trkpt>
      <trkpt lat="43.50443" lon="6.42942">
        <ele>224.65</ele>
        <time>2017-10-16T13:57:50Z</time>
      </trkpt>
      <trkpt lat="43.50425" lon="6.42953">
        <ele>225.97</ele>
        <time>2017-10-16T13:57:53Z</time>
      </trkpt>
      <trkpt lat="43.50407" lon="6.42965">
        <ele>228.09</ele>
        <time>2017-10-16T13:57:56Z</time>
      </trkpt>
      <trkpt lat="43.50389" lon="6.42977">
        <ele>228.49</ele>
        <time>2017-10-16T13:57:59Z</time>
      </trkpt>
      <trkpt lat="43.50373" lon="6.4299">
        <ele>229.13</ele>
        <time>2017-10-16T13:58:02Z</time>
      </trkpt>
      <trkpt lat="43.50357" lon="6.43006">
        <ele>229.33</ele>
        <time>2017-10-16T13:58:05Z</time>
      </trkpt>
      <trkpt lat="43.50343" lon="6.43023">
        <ele>228.37</ele>
        <time>2017-10-16T13:58:08Z</time>
      </trkpt>
      <trkpt lat="43.50329" lon="6.43039">
        <ele>226.54</ele>
        <time>2017-10-16T13:58:11Z</time>
      </trkpt>
      <trkpt lat="43.50312" lon="6.43061">
        <ele>226.33</ele>
        <time>2017-10-16T13:58:15Z</time>
      </trkpt>
      <trkpt lat="43.50295" lon="6.43082">
        <ele>226.33</ele>
        <time>2017-10-16T13:58:19Z</time>
      </trkpt>
      <trkpt lat="43.50281" lon="6.43101">
        <ele>226.49</ele>
        <time>2017-10-16T13:58:23Z</time>
      </trkpt>
      <trkpt lat="43.5029" lon="6.43123">
        <ele>224.34</ele>
        <time>2017-10-16T13:58:30Z</time>
      </trkpt>
      <trkpt lat="43.50312" lon="6.43124">
        <ele>222.37</ele>
        <time>2017-10-16T13:58:34Z</time>
      </trkpt>
      <trkpt lat="43.5033" lon="6.4313">
        <ele>221.34</ele>
        <time>2017-10-16T13:58:37Z</time>
      </trkpt>
      <trkpt lat="43.50352" lon="6.43137">
        <ele>219.54</ele>
        <time>2017-10-16T13:58:40Z</time>
      </trkpt>
      <trkpt lat="43.5037" lon="6.43142">
        <ele>217.74</ele>
        <time>2017-10-16T13:58:42Z</time>
      </trkpt>
      <trkpt lat="43.50395" lon="6.43147">
        <ele>214.74</ele>
        <time>2017-10-16T13:58:45Z</time>
      </trkpt>
      <trkpt lat="43.50419" lon="6.43151">
        <ele>209.6</ele>
        <time>2017-10-16T13:58:48Z</time>
      </trkpt>
      <trkpt lat="43.50438" lon="6.43152">
        <ele>208.54</ele>
        <time>2017-10-16T13:58:50Z</time>
      </trkpt>
      <trkpt lat="43.50457" lon="6.43151">
        <ele>206.74</ele>
        <time>2017-10-16T13:58:52Z</time>
      </trkpt>
      <trkpt lat="43.50481" lon="6.43144">
        <ele>206.34</ele>
        <time>2017-10-16T13:58:55Z</time>
      </trkpt>
      <trkpt lat="43.50503" lon="6.43136">
        <ele>206.33</ele>
        <time>2017-10-16T13:58:58Z</time>
      </trkpt>
      <trkpt lat="43.50521" lon="6.43132">
        <ele>206.37</ele>
        <time>2017-10-16T13:59:01Z</time>
      </trkpt>
      <trkpt lat="43.50515" lon="6.43158">
        <ele>211.33</ele>
        <time>2017-10-16T13:59:08Z</time>
      </trkpt>
      <trkpt lat="43.50503" lon="6.4318">
        <ele>213.32</ele>
        <time>2017-10-16T13:59:12Z</time>
      </trkpt>
      <trkpt lat="43.50492" lon="6.43202">
        <ele>213.14</ele>
        <time>2017-10-16T13:59:15Z</time>
      </trkpt>
      <trkpt lat="43.50481" lon="6.43225">
        <ele>212.31</ele>
        <time>2017-10-16T13:59:18Z</time>
      </trkpt>
      <trkpt lat="43.5047" lon="6.43246">
        <ele>211.53</ele>
        <time>2017-10-16T13:59:21Z</time>
      </trkpt>
      <trkpt lat="43.50458" lon="6.43272">
        <ele>210.41</ele>
        <time>2017-10-16T13:59:24Z</time>
      </trkpt>
      <trkpt lat="43.50445" lon="6.43298">
        <ele>208.54</ele>
        <time>2017-10-16T13:59:27Z</time>
      </trkpt>
      <trkpt lat="43.50433" lon="6.43323">
        <ele>208.3</ele>
        <time>2017-10-16T13:59:31Z</time>
      </trkpt>
      <trkpt lat="43.50448" lon="6.43343">
        <ele>208.52</ele>
        <time>2017-10-16T13:59:38Z</time>
      </trkpt>
      <trkpt lat="43.50468" lon="6.43351">
        <ele>208.36</ele>
        <time>2017-10-16T13:59:45Z</time>
      </trkpt>
      <trkpt lat="43.50477" lon="6.43375">
        <ele>210.28</ele>
        <time>2017-10-16T13:59:53Z</time>
      </trkpt>
      <trkpt lat="43.50484" lon="6.434">
        <ele>212.33</ele>
        <time>2017-10-16T14:00:05Z</time>
      </trkpt>
      <trkpt lat="43.50502" lon="6.43393">
        <ele>207.33</ele>
        <time>2017-10-16T14:12:58Z</time>
      </trkpt>
      <trkpt lat="43.50483" lon="6.43395">
        <ele>210.33</ele>
        <time>2017-10-16T14:21:43Z</time>
      </trkpt>
      <trkpt lat="43.50478" lon="6.43367">
        <ele>209.37</ele>
        <time>2017-10-16T14:21:52Z</time>
      </trkpt>
      <trkpt lat="43.50466" lon="6.43348">
        <ele>208.34</ele>
        <time>2017-10-16T14:21:56Z</time>
      </trkpt>
      <trkpt lat="43.50445" lon="6.43342">
        <ele>205.39</ele>
        <time>2017-10-16T14:22:00Z</time>
      </trkpt>
      <trkpt lat="43.50426" lon="6.43332">
        <ele>203.41</ele>
        <time>2017-10-16T14:22:04Z</time>
      </trkpt>
      <trkpt lat="43.50408" lon="6.43325">
        <ele>205.13</ele>
        <time>2017-10-16T14:22:08Z</time>
      </trkpt>
      <trkpt lat="43.5039" lon="6.43332">
        <ele>205.33</ele>
        <time>2017-10-16T14:22:12Z</time>
      </trkpt>
      <trkpt lat="43.50376" lon="6.43351">
        <ele>205.33</ele>
        <time>2017-10-16T14:22:16Z</time>
      </trkpt>
      <trkpt lat="43.50364" lon="6.43371">
        <ele>207.12</ele>
        <time>2017-10-16T14:22:20Z</time>
      </trkpt>
      <trkpt lat="43.50352" lon="6.43394">
        <ele>211.16</ele>
        <time>2017-10-16T14:22:25Z</time>
      </trkpt>
      <trkpt lat="43.50338" lon="6.43414">
        <ele>207.75</ele>
        <time>2017-10-16T14:22:29Z</time>
      </trkpt>
      <trkpt lat="43.50327" lon="6.4344">
        <ele>205.7</ele>
        <time>2017-10-16T14:22:33Z</time>
      </trkpt>
      <trkpt lat="43.50316" lon="6.43465">
        <ele>207.25</ele>
        <time>2017-10-16T14:22:37Z</time>
      </trkpt>
      <trkpt lat="43.50305" lon="6.43493">
        <ele>207.17</ele>
        <time>2017-10-16T14:22:40Z</time>
      </trkpt>
      <trkpt lat="43.50292" lon="6.43522">
        <ele>204.61</ele>
        <time>2017-10-16T14:22:43Z</time>
      </trkpt>
      <trkpt lat="43.5028" lon="6.4355">
        <ele>201.55</ele>
        <time>2017-10-16T14:22:46Z</time>
      </trkpt>
      <trkpt lat="43.50267" lon="6.43578">
        <ele>200.34</ele>
        <time>2017-10-16T14:22:49Z</time>
      </trkpt>
      <trkpt lat="43.50247" lon="6.436">
        <ele>198.57</ele>
        <time>2017-10-16T14:22:52Z</time>
      </trkpt>
      <trkpt lat="43.50228" lon="6.43619">
        <ele>200.09</ele>
        <time>2017-10-16T14:22:55Z</time>
      </trkpt>
      <trkpt lat="43.50206" lon="6.43641">
        <ele>197.58</ele>
        <time>2017-10-16T14:22:58Z</time>
      </trkpt>
      <trkpt lat="43.50184" lon="6.43657">
        <ele>197.49</ele>
        <time>2017-10-16T14:23:01Z</time>
      </trkpt>
      <trkpt lat="43.50162" lon="6.4367">
        <ele>194.58</ele>
        <time>2017-10-16T14:23:04Z</time>
      </trkpt>
      <trkpt lat="43.5014" lon="6.43681">
        <ele>193.38</ele>
        <time>2017-10-16T14:23:07Z</time>
      </trkpt>
      <trkpt lat="43.50119" lon="6.43691">
        <ele>194.13</ele>
        <time>2017-10-16T14:23:10Z</time>
      </trkpt>
      <trkpt lat="43.50099" lon="6.43702">
        <ele>192.38</ele>
        <time>2017-10-16T14:23:13Z</time>
      </trkpt>
      <trkpt lat="43.50088" lon="6.43726">
        <ele>192.33</ele>
        <time>2017-10-16T14:23:17Z</time>
      </trkpt>
      <trkpt lat="43.50082" lon="6.43752">
        <ele>191.15</ele>
        <time>2017-10-16T14:23:21Z</time>
      </trkpt>
      <trkpt lat="43.50083" lon="6.43777">
        <ele>192.14</ele>
        <time>2017-10-16T14:23:25Z</time>
      </trkpt>
      <trkpt lat="43.50085" lon="6.43803">
        <ele>193.2</ele>
        <time>2017-10-16T14:23:29Z</time>
      </trkpt>
      <trkpt lat="43.50088" lon="6.43832">
        <ele>191.57</ele>
        <time>2017-10-16T14:23:34Z</time>
      </trkpt>
      <trkpt lat="43.50071" lon="6.43845">
        <ele>192.33</ele>
        <time>2017-10-16T14:23:39Z</time>
      </trkpt>
      <trkpt lat="43.50052" lon="6.43856">
        <ele>193.13</ele>
        <time>2017-10-16T14:23:43Z</time>
      </trkpt>
      <trkpt lat="43.50033" lon="6.43866">
        <ele>191.57</ele>
        <time>2017-10-16T14:23:46Z</time>
      </trkpt>
      <trkpt lat="43.50012" lon="6.43877">
        <ele>190.53</ele>
        <time>2017-10-16T14:23:50Z</time>
      </trkpt>
      <trkpt lat="43.49992" lon="6.43887">
        <ele>191.13</ele>
        <time>2017-10-16T14:23:54Z</time>
      </trkpt>
      <trkpt lat="43.49971" lon="6.43898">
        <ele>194.21</ele>
        <time>2017-10-16T14:23:59Z</time>
      </trkpt>
      <trkpt lat="43.49952" lon="6.43909">
        <ele>191.38</ele>
        <time>2017-10-16T14:24:04Z</time>
      </trkpt>
      <trkpt lat="43.49933" lon="6.43917">
        <ele>191.49</ele>
        <time>2017-10-16T14:24:09Z</time>
      </trkpt>
      <trkpt lat="43.49916" lon="6.43928">
        <ele>193.25</ele>
        <time>2017-10-16T14:24:14Z</time>
      </trkpt>
      <trkpt lat="43.49899" lon="6.43937">
        <ele>193.49</ele>
        <time>2017-10-16T14:24:19Z</time>
      </trkpt>
      <trkpt lat="43.49879" lon="6.43943">
        <ele>194.13</ele>
        <time>2017-10-16T14:24:25Z</time>
      </trkpt>
      <trkpt lat="43.49859" lon="6.43952">
        <ele>195.13</ele>
        <time>2017-10-16T14:24:31Z</time>
      </trkpt>
      <trkpt lat="43.49841" lon="6.43957">
        <ele>198.93</ele>
        <time>2017-10-16T14:24:37Z</time>
      </trkpt>
      <trkpt lat="43.49821" lon="6.43961">
        <ele>205.12</ele>
        <time>2017-10-16T14:24:44Z</time>
      </trkpt>
      <trkpt lat="43.49806" lon="6.43978">
        <ele>204.56</ele>
        <time>2017-10-16T14:24:49Z</time>
      </trkpt>
      <trkpt lat="43.49795" lon="6.44001">
        <ele>206.33</ele>
        <time>2017-10-16T14:24:55Z</time>
      </trkpt>
      <trkpt lat="43.49782" lon="6.44023">
        <ele>205.14</ele>
        <time>2017-10-16T14:25:00Z</time>
      </trkpt>
      <trkpt lat="43.49768" lon="6.44048">
        <ele>202.42</ele>
        <time>2017-10-16T14:25:04Z</time>
      </trkpt>
      <trkpt lat="43.49753" lon="6.44069">
        <ele>199.58</ele>
        <time>2017-10-16T14:25:07Z</time>
      </trkpt>
      <trkpt lat="43.49738" lon="6.44091">
        <ele>198.37</ele>
        <time>2017-10-16T14:25:10Z</time>
      </trkpt>
      <trkpt lat="43.49723" lon="6.44118">
        <ele>197.37</ele>
        <time>2017-10-16T14:25:13Z</time>
      </trkpt>
      <trkpt lat="43.49709" lon="6.44138">
        <ele>197.17</ele>
        <time>2017-10-16T14:25:16Z</time>
      </trkpt>
      <trkpt lat="43.49691" lon="6.44164">
        <ele>195.22</ele>
        <time>2017-10-16T14:25:19Z</time>
      </trkpt>
      <trkpt lat="43.49677" lon="6.44182">
        <ele>192.61</ele>
        <time>2017-10-16T14:25:21Z</time>
      </trkpt>
      <trkpt lat="43.49662" lon="6.442">
        <ele>191.54</ele>
        <time>2017-10-16T14:25:23Z</time>
      </trkpt>
      <trkpt lat="43.49648" lon="6.44219">
        <ele>189.58</ele>
        <time>2017-10-16T14:25:25Z</time>
      </trkpt>
      <trkpt lat="43.49634" lon="6.44236">
        <ele>189.34</ele>
        <time>2017-10-16T14:25:27Z</time>
      </trkpt>
      <trkpt lat="43.49619" lon="6.44251">
        <ele>187.41</ele>
        <time>2017-10-16T14:25:29Z</time>
      </trkpt>
      <trkpt lat="43.49598" lon="6.44272">
        <ele>186.37</ele>
        <time>2017-10-16T14:25:32Z</time>
      </trkpt>
      <trkpt lat="43.49581" lon="6.44293">
        <ele>185.53</ele>
        <time>2017-10-16T14:25:35Z</time>
      </trkpt>
      <trkpt lat="43.49562" lon="6.4431">
        <ele>186.29</ele>
        <time>2017-10-16T14:25:38Z</time>
      </trkpt>
      <trkpt lat="43.49545" lon="6.44324">
        <ele>185.33</ele>
        <time>2017-10-16T14:25:43Z</time>
      </trkpt>
      <trkpt lat="43.4953" lon="6.44343">
        <ele>184.46</ele>
        <time>2017-10-16T14:25:48Z</time>
      </trkpt>
      <trkpt lat="43.49516" lon="6.4436">
        <ele>186.09</ele>
        <time>2017-10-16T14:25:52Z</time>
      </trkpt>
      <trkpt lat="43.49502" lon="6.44377">
        <ele>185.53</ele>
        <time>2017-10-16T14:25:55Z</time>
      </trkpt>
      <trkpt lat="43.49488" lon="6.44396">
        <ele>184.15</ele>
        <time>2017-10-16T14:25:58Z</time>
      </trkpt>
      <trkpt lat="43.49474" lon="6.44416">
        <ele>182.54</ele>
        <time>2017-10-16T14:26:01Z</time>
      </trkpt>
      <trkpt lat="43.49458" lon="6.44437">
        <ele>180.57</ele>
        <time>2017-10-16T14:26:04Z</time>
      </trkpt>
      <trkpt lat="43.49443" lon="6.4446">
        <ele>179.53</ele>
        <time>2017-10-16T14:26:07Z</time>
      </trkpt>
      <trkpt lat="43.49424" lon="6.44486">
        <ele>177.38</ele>
        <time>2017-10-16T14:26:10Z</time>
      </trkpt>
      <trkpt lat="43.49411" lon="6.44506">
        <ele>174.45</ele>
        <time>2017-10-16T14:26:12Z</time>
      </trkpt>
      <trkpt lat="43.49392" lon="6.4453">
        <ele>174.3</ele>
        <time>2017-10-16T14:26:15Z</time>
      </trkpt>
      <trkpt lat="43.4937" lon="6.4455">
        <ele>174.33</ele>
        <time>2017-10-16T14:26:18Z</time>
      </trkpt>
      <trkpt lat="43.49345" lon="6.44561">
        <ele>173.53</ele>
        <time>2017-10-16T14:26:21Z</time>
      </trkpt>
      <trkpt lat="43.49323" lon="6.44572">
        <ele>173.01</ele>
        <time>2017-10-16T14:26:24Z</time>
      </trkpt>
      <trkpt lat="43.493" lon="6.44581">
        <ele>169.59</ele>
        <time>2017-10-16T14:26:27Z</time>
      </trkpt>
      <trkpt lat="43.49283" lon="6.44593">
        <ele>172.22</ele>
        <time>2017-10-16T14:26:30Z</time>
      </trkpt>
      <trkpt lat="43.49267" lon="6.44605">
        <ele>171.38</ele>
        <time>2017-10-16T14:26:34Z</time>
      </trkpt>
      <trkpt lat="43.49253" lon="6.44626">
        <ele>173.61</ele>
        <time>2017-10-16T14:26:39Z</time>
      </trkpt>
      <trkpt lat="43.49239" lon="6.44651">
        <ele>174.13</ele>
        <time>2017-10-16T14:26:43Z</time>
      </trkpt>
      <trkpt lat="43.49226" lon="6.44672">
        <ele>176.12</ele>
        <time>2017-10-16T14:26:47Z</time>
      </trkpt>
      <trkpt lat="43.49209" lon="6.44695">
        <ele>177.11</ele>
        <time>2017-10-16T14:26:51Z</time>
      </trkpt>
      <trkpt lat="43.49195" lon="6.44714">
        <ele>173.59</ele>
        <time>2017-10-16T14:26:54Z</time>
      </trkpt>
      <trkpt lat="43.49178" lon="6.44733">
        <ele>172.38</ele>
        <time>2017-10-16T14:26:57Z</time>
      </trkpt>
      <trkpt lat="43.49158" lon="6.44749">
        <ele>173.93</ele>
        <time>2017-10-16T14:27:00Z</time>
      </trkpt>
      <trkpt lat="43.49141" lon="6.44764">
        <ele>173.82</ele>
        <time>2017-10-16T14:27:03Z</time>
      </trkpt>
      <trkpt lat="43.49123" lon="6.44776">
        <ele>172.73</ele>
        <time>2017-10-16T14:27:06Z</time>
      </trkpt>
      <trkpt lat="43.491" lon="6.44792">
        <ele>169.81</ele>
        <time>2017-10-16T14:27:09Z</time>
      </trkpt>
      <trkpt lat="43.49081" lon="6.44806">
        <ele>167.75</ele>
        <time>2017-10-16T14:27:11Z</time>
      </trkpt>
      <trkpt lat="43.49063" lon="6.44817">
        <ele>166.55</ele>
        <time>2017-10-16T14:27:13Z</time>
      </trkpt>
      <trkpt lat="43.49045" lon="6.4483">
        <ele>164.74</ele>
        <time>2017-10-16T14:27:15Z</time>
      </trkpt>
      <trkpt lat="43.49026" lon="6.44842">
        <ele>161.63</ele>
        <time>2017-10-16T14:27:17Z</time>
      </trkpt>
      <trkpt lat="43.49009" lon="6.44849">
        <ele>158.78</ele>
        <time>2017-10-16T14:27:19Z</time>
      </trkpt>
      <trkpt lat="43.48986" lon="6.44861">
        <ele>157.38</ele>
        <time>2017-10-16T14:27:22Z</time>
      </trkpt>
      <trkpt lat="43.48963" lon="6.44881">
        <ele>156.53</ele>
        <time>2017-10-16T14:27:25Z</time>
      </trkpt>
      <trkpt lat="43.48945" lon="6.44901">
        <ele>155.5</ele>
        <time>2017-10-16T14:27:28Z</time>
      </trkpt>
      <trkpt lat="43.48925" lon="6.44917">
        <ele>154.34</ele>
        <time>2017-10-16T14:27:31Z</time>
      </trkpt>
      <trkpt lat="43.48911" lon="6.44938">
        <ele>154.33</ele>
        <time>2017-10-16T14:27:34Z</time>
      </trkpt>
      <trkpt lat="43.48897" lon="6.44964">
        <ele>154.33</ele>
        <time>2017-10-16T14:27:37Z</time>
      </trkpt>
      <trkpt lat="43.48883" lon="6.44984">
        <ele>153.37</ele>
        <time>2017-10-16T14:27:40Z</time>
      </trkpt>
      <trkpt lat="43.48865" lon="6.44999">
        <ele>155.1</ele>
        <time>2017-10-16T14:27:44Z</time>
      </trkpt>
      <trkpt lat="43.48846" lon="6.45013">
        <ele>155.37</ele>
        <time>2017-10-16T14:27:49Z</time>
      </trkpt>
      <trkpt lat="43.4883" lon="6.45025">
        <ele>157.29</ele>
        <time>2017-10-16T14:27:53Z</time>
      </trkpt>
      <trkpt lat="43.48815" lon="6.45044">
        <ele>158.33</ele>
        <time>2017-10-16T14:27:57Z</time>
      </trkpt>
      <trkpt lat="43.48804" lon="6.45067">
        <ele>160.13</ele>
        <time>2017-10-16T14:28:01Z</time>
      </trkpt>
      <trkpt lat="43.48794" lon="6.45091">
        <ele>159.33</ele>
        <time>2017-10-16T14:28:05Z</time>
      </trkpt>
      <trkpt lat="43.48785" lon="6.45115">
        <ele>159.29</ele>
        <time>2017-10-16T14:28:09Z</time>
      </trkpt>
      <trkpt lat="43.48777" lon="6.45138">
        <ele>160.32</ele>
        <time>2017-10-16T14:28:13Z</time>
      </trkpt>
      <trkpt lat="43.48772" lon="6.45165">
        <ele>161.33</ele>
        <time>2017-10-16T14:28:18Z</time>
      </trkpt>
      <trkpt lat="43.48763" lon="6.45189">
        <ele>163.32</ele>
        <time>2017-10-16T14:28:23Z</time>
      </trkpt>
      <trkpt lat="43.48754" lon="6.45212">
        <ele>165.13</ele>
        <time>2017-10-16T14:28:28Z</time>
      </trkpt>
      <trkpt lat="43.48743" lon="6.45237">
        <ele>165.33</ele>
        <time>2017-10-16T14:28:33Z</time>
      </trkpt>
      <trkpt lat="43.48734" lon="6.45262">
        <ele>165.33</ele>
        <time>2017-10-16T14:28:38Z</time>
      </trkpt>
      <trkpt lat="43.48724" lon="6.45285">
        <ele>166.33</ele>
        <time>2017-10-16T14:28:43Z</time>
      </trkpt>
      <trkpt lat="43.48714" lon="6.45306">
        <ele>166.34</ele>
        <time>2017-10-16T14:28:48Z</time>
      </trkpt>
      <trkpt lat="43.48702" lon="6.45327">
        <ele>167.33</ele>
        <time>2017-10-16T14:28:53Z</time>
      </trkpt>
      <trkpt lat="43.48691" lon="6.45347">
        <ele>167.33</ele>
        <time>2017-10-16T14:28:59Z</time>
      </trkpt>
      <trkpt lat="43.48679" lon="6.4537">
        <ele>168.26</ele>
        <time>2017-10-16T14:29:05Z</time>
      </trkpt>
      <trkpt lat="43.48669" lon="6.45395">
        <ele>170.09</ele>
        <time>2017-10-16T14:29:11Z</time>
      </trkpt>
      <trkpt lat="43.48662" lon="6.45418">
        <ele>169.37</ele>
        <time>2017-10-16T14:29:16Z</time>
      </trkpt>
      <trkpt lat="43.48654" lon="6.4544">
        <ele>169.37</ele>
        <time>2017-10-16T14:29:21Z</time>
      </trkpt>
      <trkpt lat="43.48645" lon="6.45465">
        <ele>174.25</ele>
        <time>2017-10-16T14:29:27Z</time>
      </trkpt>
      <trkpt lat="43.48638" lon="6.45492">
        <ele>173.39</ele>
        <time>2017-10-16T14:29:32Z</time>
      </trkpt>
      <trkpt lat="43.48629" lon="6.45515">
        <ele>172.59</ele>
        <time>2017-10-16T14:29:37Z</time>
      </trkpt>
      <trkpt lat="43.48618" lon="6.45539">
        <ele>170.34</ele>
        <time>2017-10-16T14:29:42Z</time>
      </trkpt>
      <trkpt lat="43.48607" lon="6.45561">
        <ele>173.09</ele>
        <time>2017-10-16T14:29:47Z</time>
      </trkpt>
      <trkpt lat="43.48599" lon="6.45584">
        <ele>173.33</ele>
        <time>2017-10-16T14:29:52Z</time>
      </trkpt>
      <trkpt lat="43.48589" lon="6.45606">
        <ele>173.53</ele>
        <time>2017-10-16T14:29:57Z</time>
      </trkpt>
      <trkpt lat="43.48578" lon="6.45631">
        <ele>175.33</ele>
        <time>2017-10-16T14:30:03Z</time>
      </trkpt>
      <trkpt lat="43.48571" lon="6.45657">
        <ele>174.33</ele>
        <time>2017-10-16T14:30:08Z</time>
      </trkpt>
      <trkpt lat="43.48567" lon="6.45688">
        <ele>174.29</ele>
        <time>2017-10-16T14:30:13Z</time>
      </trkpt>
      <trkpt lat="43.48564" lon="6.45718">
        <ele>173.17</ele>
        <time>2017-10-16T14:30:17Z</time>
      </trkpt>
      <trkpt lat="43.48564" lon="6.45748">
        <ele>172.53</ele>
        <time>2017-10-16T14:30:21Z</time>
      </trkpt>
      <trkpt lat="43.48562" lon="6.45777">
        <ele>171.34</ele>
        <time>2017-10-16T14:30:24Z</time>
      </trkpt>
      <trkpt lat="43.48563" lon="6.45811">
        <ele>169.38</ele>
        <time>2017-10-16T14:30:27Z</time>
      </trkpt>
      <trkpt lat="43.48565" lon="6.45846">
        <ele>168.37</ele>
        <time>2017-10-16T14:30:30Z</time>
      </trkpt>
      <trkpt lat="43.48567" lon="6.45871">
        <ele>167.37</ele>
        <time>2017-10-16T14:30:32Z</time>
      </trkpt>
      <trkpt lat="43.48569" lon="6.45898">
        <ele>165.41</ele>
        <time>2017-10-16T14:30:34Z</time>
      </trkpt>
      <trkpt lat="43.48571" lon="6.45924">
        <ele>164.54</ele>
        <time>2017-10-16T14:30:36Z</time>
      </trkpt>
      <trkpt lat="43.48574" lon="6.45948">
        <ele>164.34</ele>
        <time>2017-10-16T14:30:38Z</time>
      </trkpt>
      <trkpt lat="43.48577" lon="6.45983">
        <ele>163.34</ele>
        <time>2017-10-16T14:30:41Z</time>
      </trkpt>
      <trkpt lat="43.48578" lon="6.46015">
        <ele>162.34</ele>
        <time>2017-10-16T14:30:44Z</time>
      </trkpt>
      <trkpt lat="43.48573" lon="6.46041">
        <ele>163.33</ele>
        <time>2017-10-16T14:30:47Z</time>
      </trkpt>
      <trkpt lat="43.48567" lon="6.46072">
        <ele>164.29</ele>
        <time>2017-10-16T14:30:51Z</time>
      </trkpt>
      <trkpt lat="43.48561" lon="6.46102">
        <ele>164.33</ele>
        <time>2017-10-16T14:30:55Z</time>
      </trkpt>
      <trkpt lat="43.48556" lon="6.46132">
        <ele>163.34</ele>
        <time>2017-10-16T14:30:59Z</time>
      </trkpt>
      <trkpt lat="43.48551" lon="6.46163">
        <ele>163.33</ele>
        <time>2017-10-16T14:31:03Z</time>
      </trkpt>
      <trkpt lat="43.48551" lon="6.46197">
        <ele>163.33</ele>
        <time>2017-10-16T14:31:07Z</time>
      </trkpt>
      <trkpt lat="43.48551" lon="6.46224">
        <ele>161.57</ele>
        <time>2017-10-16T14:31:10Z</time>
      </trkpt>
      <trkpt lat="43.48552" lon="6.46251">
        <ele>161.33</ele>
        <time>2017-10-16T14:31:13Z</time>
      </trkpt>
      <trkpt lat="43.48554" lon="6.46281">
        <ele>162.29</ele>
        <time>2017-10-16T14:31:16Z</time>
      </trkpt>
      <trkpt lat="43.48554" lon="6.46311">
        <ele>161.53</ele>
        <time>2017-10-16T14:31:19Z</time>
      </trkpt>
      <trkpt lat="43.48556" lon="6.46342">
        <ele>161.33</ele>
        <time>2017-10-16T14:31:22Z</time>
      </trkpt>
      <trkpt lat="43.48557" lon="6.46372">
        <ele>160.53</ele>
        <time>2017-10-16T14:31:25Z</time>
      </trkpt>
      <trkpt lat="43.48558" lon="6.46404">
        <ele>160.33</ele>
        <time>2017-10-16T14:31:28Z</time>
      </trkpt>
      <trkpt lat="43.48558" lon="6.46435">
        <ele>159.53</ele>
        <time>2017-10-16T14:31:31Z</time>
      </trkpt>
      <trkpt lat="43.48558" lon="6.46469">
        <ele>157.57</ele>
        <time>2017-10-16T14:31:34Z</time>
      </trkpt>
      <trkpt lat="43.48561" lon="6.46504">
        <ele>156.34</ele>
        <time>2017-10-16T14:31:37Z</time>
      </trkpt>
      <trkpt lat="43.48563" lon="6.46537">
        <ele>155.53</ele>
        <time>2017-10-16T14:31:40Z</time>
      </trkpt>
      <trkpt lat="43.48565" lon="6.46568">
        <ele>155.33</ele>
        <time>2017-10-16T14:31:43Z</time>
      </trkpt>
      <trkpt lat="43.48566" lon="6.466">
        <ele>154.53</ele>
        <time>2017-10-16T14:31:46Z</time>
      </trkpt>
      <trkpt lat="43.48567" lon="6.4663">
        <ele>154.37</ele>
        <time>2017-10-16T14:31:49Z</time>
      </trkpt>
      <trkpt lat="43.48569" lon="6.46658">
        <ele>154.33</ele>
        <time>2017-10-16T14:31:52Z</time>
      </trkpt>
      <trkpt lat="43.48571" lon="6.46689">
        <ele>154.33</ele>
        <time>2017-10-16T14:31:55Z</time>
      </trkpt>
      <trkpt lat="43.48574" lon="6.46721">
        <ele>154.33</ele>
        <time>2017-10-16T14:31:58Z</time>
      </trkpt>
      <trkpt lat="43.48577" lon="6.46753">
        <ele>152.38</ele>
        <time>2017-10-16T14:32:01Z</time>
      </trkpt>
      <trkpt lat="43.48578" lon="6.46784">
        <ele>151.34</ele>
        <time>2017-10-16T14:32:04Z</time>
      </trkpt>
      <trkpt lat="43.48579" lon="6.46817">
        <ele>149.54</ele>
        <time>2017-10-16T14:32:07Z</time>
      </trkpt>
      <trkpt lat="43.48583" lon="6.46851">
        <ele>149.33</ele>
        <time>2017-10-16T14:32:10Z</time>
      </trkpt>
      <trkpt lat="43.48594" lon="6.4688">
        <ele>148.53</ele>
        <time>2017-10-16T14:32:13Z</time>
      </trkpt>
      <trkpt lat="43.48604" lon="6.46909">
        <ele>149.29</ele>
        <time>2017-10-16T14:32:16Z</time>
      </trkpt>
      <trkpt lat="43.48614" lon="6.46937">
        <ele>150.13</ele>
        <time>2017-10-16T14:32:19Z</time>
      </trkpt>
      <trkpt lat="43.48624" lon="6.46965">
        <ele>149.37</ele>
        <time>2017-10-16T14:32:22Z</time>
      </trkpt>
      <trkpt lat="43.48632" lon="6.46991">
        <ele>149.33</ele>
        <time>2017-10-16T14:32:25Z</time>
      </trkpt>
      <trkpt lat="43.48637" lon="6.47015">
        <ele>151.12</ele>
        <time>2017-10-16T14:32:28Z</time>
      </trkpt>
      <trkpt lat="43.48642" lon="6.47045">
        <ele>151.29</ele>
        <time>2017-10-16T14:32:32Z</time>
      </trkpt>
      <trkpt lat="43.48646" lon="6.47071">
        <ele>151.33</ele>
        <time>2017-10-16T14:32:36Z</time>
      </trkpt>
      <trkpt lat="43.48651" lon="6.47097">
        <ele>152.32</ele>
        <time>2017-10-16T14:32:40Z</time>
      </trkpt>
      <trkpt lat="43.48658" lon="6.47122">
        <ele>153.14</ele>
        <time>2017-10-16T14:32:44Z</time>
      </trkpt>
      <trkpt lat="43.48664" lon="6.47147">
        <ele>153.33</ele>
        <time>2017-10-16T14:32:48Z</time>
      </trkpt>
      <trkpt lat="43.48669" lon="6.47175">
        <ele>153.29</ele>
        <time>2017-10-16T14:32:53Z</time>
      </trkpt>
      <trkpt lat="43.48675" lon="6.47201">
        <ele>153.17</ele>
        <time>2017-10-16T14:32:59Z</time>
      </trkpt>
      <trkpt lat="43.48694" lon="6.47202">
        <ele>155.1</ele>
        <time>2017-10-16T14:33:06Z</time>
      </trkpt>
      <trkpt lat="43.48714" lon="6.4719">
        <ele>156.33</ele>
        <time>2017-10-16T14:33:12Z</time>
      </trkpt>
      <trkpt lat="43.48726" lon="6.47171">
        <ele>156.5</ele>
        <time>2017-10-16T14:33:18Z</time>
      </trkpt>
      <trkpt lat="43.48724" lon="6.47146">
        <ele>155.53</ele>
        <time>2017-10-16T14:33:22Z</time>
      </trkpt>
      <trkpt lat="43.48718" lon="6.47114">
        <ele>154.37</ele>
        <time>2017-10-16T14:33:26Z</time>
      </trkpt>
      <trkpt lat="43.48716" lon="6.47088">
        <ele>154.33</ele>
        <time>2017-10-16T14:33:30Z</time>
      </trkpt>
      <trkpt lat="43.48709" lon="6.47059">
        <ele>154.33</ele>
        <time>2017-10-16T14:33:33Z</time>
      </trkpt>
      <trkpt lat="43.48705" lon="6.47033">
        <ele>153.37</ele>
        <time>2017-10-16T14:33:36Z</time>
      </trkpt>
      <trkpt lat="43.48701" lon="6.47004">
        <ele>153.33</ele>
        <time>2017-10-16T14:33:40Z</time>
      </trkpt>
      <trkpt lat="43.48697" lon="6.46977">
        <ele>152.53</ele>
        <time>2017-10-16T14:33:44Z</time>
      </trkpt>
      <trkpt lat="43.48694" lon="6.46952">
        <ele>152.33</ele>
        <time>2017-10-16T14:33:52Z</time>
      </trkpt>
      <trkpt lat="43.4869" lon="6.46926">
        <ele>152.13</ele>
        <time>2017-10-16T14:34:02Z</time>
      </trkpt>
      <trkpt lat="43.48702" lon="6.46908">
        <ele>152.29</ele>
        <time>2017-10-16T14:34:20Z</time>
      </trkpt>
    </trkseg>
  </trk>
</gpx>